Meteorology homepage Current Weather at the Dr. Eugene Chermack
Surface Weather Station at SUNY Oswego









Pressure, temperature, and humidity data

                                          ---------- 10-meter --------   -------------- 2-meter -----------------
Year    mnth   day  hh    mm     ss       TT TTmax TTmin RH Rhmax RHmin TT TTmax TTmin RH Rhmax RHmin Td Tdmax Tdmin

-sfc pressure --- 10-meter --- -- Visibility--
PP PPmax PPmin Tch Tchmax Tchmin Vis Vismax Vismin Current_weather

-- Ground -- --- Precipitation ----
Tg Tgmax Tgmin Vr_daily Vr_month Vr_year
2017	12	13	09	22	13 	  16.0	  17.9	  16.1	  92.0	 92.8	 87.6	  17.4	  18.8	  17.4	  90.3	  91.1	  87.1	  15.1	  16.5	  14.5	  991.6	  991.8	  990.5	 -20.1	 -16.3	 -20.8	 9396	 19085	  3353	Snow, light	  39.1	  39.3	  39.1	  0.24	  1.39	  4.12	
2017	12	13	08	35	47 	  17.8	  18.4	  17.2	  92.4	 92.4	 80.9	  18.8	  19.3	  18.4	  90.6	  90.6	  81.8	  16.4	  16.5	  14.4	  990.9	  991.1	  989.8	 -18.1	 -15.3	 -19.7	 4442	 44662	  3353	Snow, light	  39.1	  39.3	  39.1	  0.24	  1.39	  4.11	
2017	12	13	08	21	13 	  17.8	  19.1	  17.6	  88.1	 88.8	 80.9	  18.8	  20.0	  18.7	  87.8	  88.0	  81.7	  15.7	  16.6	  14.4	  990.7	  991.0	  989.8	 -18.9	 -13.6	 -19.7	 6837	 44662	  4134	Snow, light	  39.1	  39.3	  39.1	  0.23	  1.38	  4.11	
2017	12	13	06	34	13 	  16.7	  17.1	  16.1	  80.5	 86.1	 79.9	  17.8	  18.1	  17.3	  82.1	  86.7	  81.2	  13.6	  14.2	  12.8	  990.2	  990.5	  989.5	 -19.1	 -16.9	 -21.8	11637	 24738	  2264	Snow, light	  39.1	  39.3	  39.1	  0.23	  1.38	  4.10	
2017	12	13	06	09	16 	  16.5	  17.5	  16.2	  86.0	 86.0	 78.7	  17.5	  18.7	  17.3	  86.6	  86.6	  80.4	  14.1	  14.2	  12.8	  990.2	  990.4	  989.3	 -21.1	 -15.6	 -21.7	 5708	 54544	  3310	Snow, light	  39.1	  39.3	  39.1	  0.22	  1.37	  4.10	
2017	12	13	04	38	34 	  18.6	  20.1	  18.1	  86.4	 87.6	 75.5	  19.6	  20.9	  19.1	  86.4	  87.5	  76.6	  16.1	  16.5	  14.3	  989.4	  989.4	  988.7	 -15.3	 -10.6	 -17.7	11981	 65617	  4928	Snow, light	  39.1	  39.3	  39.1	  0.22	  1.37	  4.09	
2017	12	13	04	37	34 	  18.6	  20.1	  18.1	  87.1	 87.6	 75.5	  19.6	  20.9	  19.1	  86.9	  87.5	  76.6	  16.0	  16.5	  14.3	  989.3	  989.4	  988.7	 -17.4	 -10.6	 -17.7	 6735	 65617	  4928	Snow, light	  39.2	  39.3	  39.1	  0.22	  1.37	  4.09	
2017	12	13	04	36	33 	  18.7	  20.1	  18.1	  87.4	 87.6	 74.8	  19.6	  20.9	  19.1	  87.2	  87.5	  76.6	  15.9	  16.5	  14.3	  989.2	  989.4	  988.7	 -17.7	 -10.6	 -17.7	 7283	 65617	  4928	Snow, light	  39.1	  39.3	  39.1	  0.22	  1.37	  4.09	
2017	12	13	04	36	33 	  18.7	  20.1	  18.1	  87.6	 87.6	 74.8	  19.6	  20.9	  19.1	  87.5	  87.5	  76.6	  15.8	  16.5	  14.3	  989.1	  989.4	  988.7	 -17.7	 -10.6	 -17.7	 5866	 65617	  4928	Snow, light	  39.2	  39.3	  39.1	  0.22	  1.37	  4.09	
2017	12	13	04	35	33 	  18.7	  20.1	  18.1	  87.6	 87.2	 74.0	  19.5	  20.9	  19.1	  87.4	  87.0	  76.3	  15.6	  16.2	  14.3	  989.1	  989.4	  988.7	 -16.8	 -10.6	 -17.0	 5272	 65617	  4928	Snow, light	  39.1	  39.3	  39.1	  0.22	  1.37	  4.09	
2017	12	13	04	35	33 	  18.6	  20.1	  18.1	  87.2	 87.2	 74.0	  19.5	  20.9	  19.1	  87.0	  87.0	  76.3	  15.5	  16.2	  14.3	  989.1	  989.4	  988.7	 -16.8	 -10.6	 -17.0	 6204	 65617	  4928	Snow, light	  39.1	  39.3	  39.1	  0.22	  1.37	  4.09	
2017	12	13	04	34	33 	  18.5	  20.1	  18.1	  86.1	 86.1	 73.7	  19.3	  20.9	  19.1	  86.1	  86.1	  76.0	  15.3	  15.8	  14.3	  989.1	  989.4	  988.7	 -16.1	 -10.6	 -17.0	 6515	 65617	  4928	Snow, light	  39.1	  39.3	  39.1	  0.22	  1.37	  4.09	
2017	12	13	04	31	32 	  18.2	  20.1	  18.1	  83.6	 83.6	 73.3	  19.1	  20.9	  19.1	  84.0	  84.0	  75.3	  15.0	  15.7	  14.0	  989.3	  989.4	  988.5	 -14.0	 -10.6	 -17.0	 8832	 65617	  4928	Snow, light	  39.2	  39.3	  39.1	  0.22	  1.37	  4.09	
2017	12	13	04	28	31 	  18.2	  20.1	  18.2	  81.6	 82.7	 73.3	  19.3	  20.9	  19.3	  82.9	  84.0	  75.3	  15.3	  15.7	  14.0	  989.2	  989.3	  988.5	 -16.0	 -10.6	 -17.0	 7490	 65617	  4928	Snow, light	  39.2	  39.3	  39.1	  0.22	  1.37	  4.09	
2017	12	13	04	27	31 	  18.2	  20.1	  18.2	  81.7	 82.7	 73.3	  19.4	  20.9	  19.4	  83.1	  84.0	  75.3	  15.3	  15.7	  14.0	  989.2	  989.3	  988.5	 -16.4	 -10.6	 -17.0	 4927	 65617	  4928	Snow, light	  39.1	  39.3	  39.1	  0.22	  1.37	  4.09	
2017	12	13	04	26	30 	  18.3	  20.1	  18.3	  81.8	 82.7	 73.3	  19.4	  20.9	  19.4	  83.2	  84.0	  75.3	  15.3	  15.7	  14.0	  989.3	  989.3	  988.5	 -15.5	 -10.6	 -17.0	 8162	 65617	  6699	Snow, light	  39.2	  39.3	  39.1	  0.22	  1.37	  4.09	
2017	12	13	04	24	30 	  18.5	  20.1	  18.5	  82.7	 82.7	 73.3	  19.6	  20.9	  19.5	  84.0	  84.0	  75.3	  15.1	  15.7	  14.0	  989.1	  989.2	  988.5	 -17.0	 -10.6	 -17.0	 7667	 65617	  6699	Ice pellets, light	  39.1	  39.3	  39.1	  0.22	  1.37	  4.09	
2017	12	13	04	23	30 	  18.5	  20.1	  18.5	  82.2	 82.2	 73.3	  19.6	  20.9	  19.5	  83.5	  83.5	  75.3	  15.0	  15.7	  14.0	  989.1	  989.2	  988.5	 -15.6	 -10.6	 -16.4	 7578	 65617	  6699	Ice pellets, light	  39.2	  39.3	  39.1	  0.22	  1.37	  4.09	
2017	12	13	04	22	29 	  18.5	  20.1	  18.5	  81.3	 82.2	 73.3	  19.5	  20.9	  19.5	  82.6	  82.8	  75.3	  14.9	  15.7	  14.0	  989.1	  989.2	  988.5	 -15.8	 -10.6	 -16.4	 6794	 65617	  6699	Ice pellets, light	  39.1	  39.3	  39.1	  0.22	  1.37	  4.09	
2017	12	13	04	21	29 	  18.5	  20.1	  18.5	  80.7	 82.2	 73.3	  19.6	  20.9	  19.6	  82.1	  82.8	  75.3	  14.8	  15.7	  14.0	  989.0	  989.2	  988.5	 -15.8	 -10.6	 -16.4	 8143	 65617	  8143	Ice pellets, light	  39.1	  39.3	  39.1	  0.22	  1.37	  4.09	
2017	12	13	04	19	29 	  18.6	  20.1	  18.6	  79.7	 82.2	 73.3	  19.6	  21.0	  19.6	  81.2	  82.8	  75.3	  14.8	  15.8	  14.0	  989.0	  989.2	  988.4	 -16.3	 -10.6	 -16.3	 9832	 65617	  9833	Ice pellets, light	  39.2	  39.3	  39.1	  0.22	  1.37	  4.09	
2017	12	13	04	18	29 	  18.6	  20.1	  18.6	  79.5	 82.2	 73.3	  19.6	  21.1	  19.6	  80.9	  82.8	  75.3	  14.8	  15.8	  14.0	  989.0	  989.2	  988.4	 -15.3	 -10.6	 -15.6	14475	 65617	 12323	Ice pellets, light	  39.2	  39.3	  39.1	  0.22	  1.37	  4.09	
2017	12	13	04	17	29 	  18.6	  20.1	  18.6	  79.4	 82.2	 73.3	  19.7	  21.1	  19.7	  80.7	  82.8	  75.3	  14.9	  15.8	  14.0	  989.1	  989.2	  988.4	 -14.0	 -10.6	 -15.6	20531	 65617	 12323	Ice pellets, light	  39.2	  39.3	  39.1	  0.22	  1.37	  4.09	
2017	12	13	04	16	29 	  18.6	  20.1	  18.6	  79.7	 82.2	 73.3	  19.7	  21.1	  19.7	  80.9	  82.8	  75.3	  15.1	  15.8	  14.0	  989.1	  989.2	  988.2	 -13.6	 -10.6	 -15.6	12322	 65617	 12323	Ice pellets, light	  39.2	  39.3	  39.1	  0.22	  1.37	  4.09	
2017	12	13	04	15	29 	  18.7	  20.1	  18.7	  80.2	 82.2	 73.3	  19.7	  21.1	  19.7	  81.0	  82.8	  75.3	  15.2	  15.8	  14.0	  989.1	  989.2	  988.2	 -14.1	 -10.6	 -15.6	26788	 65617	 17270	Ice pellets, light	  39.1	  39.3	  39.1	  0.22	  1.37	  4.09	
2017	12	13	04	14	28 	  18.7	  20.1	  18.7	  80.5	 82.2	 73.3	  19.7	  21.1	  19.7	  81.2	  82.8	  75.3	  15.4	  15.8	  14.0	  989.1	  989.2	  988.2	 -14.0	 -10.6	 -15.6	30262	 65617	 17270	Ice pellets, light	  39.1	  39.3	  39.1	  0.22	  1.37	  4.09	
2017	12	13	04	13	28 	  18.8	  20.1	  18.8	  81.1	 82.2	 73.3	  19.8	  21.1	  19.8	  81.7	  82.8	  75.3	  15.5	  15.8	  14.0	  989.1	  989.2	  988.2	 -15.3	 -10.6	 -15.6	23723	 65617	 17270	Rain, freezing, light	  39.2	  39.3	  39.1	  0.22	  1.37	  4.09	
2017	12	13	04	12	28 	  18.9	  20.1	  18.9	  82.0	 82.2	 73.3	  19.9	  21.1	  19.9	  82.5	  82.8	  75.3	  15.6	  15.8	  14.0	  989.0	  989.2	  988.2	 -15.6	 -10.6	 -15.6	20242	 65617	 17270	Rain, freezing, light	  39.1	  39.3	  39.1	  0.22	  1.37	  4.09	
2017	12	13	04	11	28 	  19.0	  20.1	  19.0	  82.1	 82.2	 73.3	  20.0	  21.1	  20.0	  82.5	  82.8	  75.3	  15.5	  15.8	  14.0	  989.1	  989.2	  988.2	 -14.1	 -10.6	 -15.3	27693	 65617	 17270	Rain, freezing, light	  39.2	  39.3	  39.1	  0.22	  1.37	  4.09	
2017	12	13	04	10	28 	  19.0	  20.1	  19.0	  82.1	 82.2	 73.3	  20.0	  21.1	  20.0	  82.5	  82.8	  75.3	  15.4	  15.8	  14.0	  989.1	  989.2	  988.2	 -13.8	 -10.6	 -15.3	32181	 65617	 17270	Rain, freezing, light	  39.2	  39.3	  39.1	  0.22	  1.37	  4.09	
2017	12	13	04	09	28 	  19.1	  20.2	  19.0	  82.1	 82.2	 73.3	  20.1	  21.2	  20.0	  82.7	  82.8	  75.3	  15.4	  15.8	  14.0	  989.0	  989.2	  988.2	 -15.0	 -10.6	 -15.3	20879	 65617	 17270	Rain, freezing, light	  39.1	  39.3	  39.1	  0.22	  1.37	  4.09	
2017	12	13	04	08	28 	  19.1	  20.4	  19.0	  82.1	 82.1	 73.3	  20.1	  21.3	  20.0	  82.7	  82.7	  75.3	  15.3	  15.8	  14.0	  989.0	  989.2	  988.2	 -14.1	 -10.6	 -15.3	23789	 65617	 21138	Rain, freezing, light	  39.1	  39.3	  39.1	  0.22	  1.37	  4.09	
2017	12	13	04	07	28 	  19.1	  20.4	  19.0	  81.4	 81.4	 73.3	  20.0	  21.4	  20.0	  82.1	  82.1	  75.3	  15.2	  15.9	  14.0	  989.1	  989.2	  988.2	 -13.4	 -10.6	 -15.3	24655	 65617	 21138	Rain, freezing, light	  39.2	  39.3	  39.1	  0.22	  1.37	  4.09	
2017	12	13	04	06	28 	  19.0	  20.5	  19.0	  80.7	 80.7	 73.3	  20.0	  21.4	  20.0	  81.3	  81.3	  75.3	  15.1	  16.1	  14.0	  989.1	  989.2	  988.2	 -13.8	 -10.6	 -15.3	34251	 65617	 25538	Rain, freezing, light	  39.2	  39.3	  39.1	  0.22	  1.37	  4.09	
2017	12	13	04	05	29 	  19.1	  20.7	  19.1	  80.4	 80.5	 73.3	  20.0	  21.6	  20.0	  81.0	  81.2	  75.3	  15.1	  16.4	  14.0	  989.1	  989.2	  988.2	 -14.2	 -10.6	 -15.3	53973	 65617	 25538	Rain, freezing, light	  39.2	  39.3	  39.1	  0.22	  1.37	  4.09	
2017	12	13	04	04	29 	  19.2	  20.8	  19.2	  80.4	 80.4	 73.3	  20.1	  21.7	  20.1	  81.1	  81.1	  75.3	  15.1	  16.4	  14.0	  989.0	  989.2	  988.2	 -13.4	 -10.6	 -15.3	31184	 65617	 25538	Rain, freezing, light	  39.1	  39.3	  39.1	  0.22	  1.37	  4.09	
2017	12	13	04	03	29 	  19.2	  20.9	  19.2	  79.8	 80.1	 73.3	  20.2	  21.8	  20.2	  80.6	  81.0	  75.3	  15.1	  16.7	  14.0	  989.1	  989.2	  988.2	 -13.9	 -10.6	 -15.3	49416	 65617	 25538	Snow, light	  39.2	  39.3	  39.1	  0.22	  1.37	  4.09	
2017	12	13	04	02	29 	  19.3	  21.1	  19.3	  79.3	 80.1	 73.3	  20.2	  21.9	  20.2	  80.0	  81.0	  75.3	  15.2	  17.0	  14.0	  989.0	  989.2	  988.2	 -15.3	 -10.6	 -15.3	52893	 65617	 25538	Snow, light	  39.2	  39.3	  39.1	  0.22	  1.37	  4.09	
2017	12	13	04	01	28 	  19.4	  21.1	  19.3	  79.2	 80.3	 73.3	  20.3	  21.9	  20.3	  79.9	  81.0	  75.3	  15.3	  17.0	  14.0	  989.1	  989.2	  988.2	 -13.1	 -10.6	 -15.2	41351	 65617	 25538	Snow, light	  39.2	  39.3	  39.1	  0.22	  1.37	  4.09	
2017	12	13	04	00	28 	  19.5	  21.1	  19.3	  79.7	 80.3	 73.3	  20.3	  21.9	  20.3	  80.3	  81.0	  75.3	  15.3	  17.0	  14.0	  989.1	  989.2	  988.2	 -11.7	 -10.6	 -15.2	43832	 65617	 25538	Snow, light	  39.2	  39.3	  39.1	  0.22	  1.37	  4.09	
2017	12	13	03	59	27 	  19.4	  21.1	  19.3	  79.8	 80.3	 73.3	  20.3	  21.9	  20.3	  80.2	  81.0	  75.3	  15.3	  17.0	  14.0	  989.0	  989.2	  988.2	 -12.2	 -10.6	 -15.2	63930	 65617	 25538	Snow, light	  39.2	  39.3	  39.1	  0.22	  1.37	  4.09	
2017	12	13	03	58	27 	  19.4	  21.1	  19.3	  80.0	 80.3	 73.3	  20.3	  21.9	  20.3	  80.4	  81.0	  75.3	  15.3	  17.0	  14.0	  989.1	  989.2	  988.2	 -11.9	 -10.6	 -15.2	65616	 65617	 25538	Snow, light	  39.2	  39.3	  39.1	  0.22	  1.37	  4.09	
2017	12	13	03	57	27 	  19.4	  21.1	  19.3	  80.1	 80.3	 73.3	  20.3	  21.9	  20.3	  80.8	  81.0	  75.3	  15.2	  17.0	  14.0	  989.2	  989.2	  988.2	 -14.4	 -10.6	 -15.2	53402	 65617	 25538	Snow, light	  39.2	  39.3	  39.1	  0.22	  1.37	  4.09	
2017	12	13	03	56	27 	  19.5	  21.1	  19.3	  80.0	 80.3	 73.3	  20.4	  21.9	  20.3	  81.0	  81.0	  75.3	  15.2	  17.0	  14.0	  989.1	  989.2	  988.2	 -13.8	 -10.6	 -15.2	44143	 65617	 25538	Snow, light	  39.2	  39.3	  39.1	  0.22	  1.37	  4.09	
2017	12	13	03	55	26 	  19.4	  21.1	  19.3	  79.4	 80.5	 73.3	  20.3	  21.9	  20.3	  80.6	  81.0	  75.3	  15.2	  17.0	  14.0	  989.1	  989.2	  988.2	 -12.5	 -10.6	 -15.2	65616	 65617	 25538	Snow, light	  39.2	  39.3	  39.1	  0.22	  1.37	  4.09	
2017	12	13	03	54	26 	  19.3	  21.1	  19.3	  78.9	 80.5	 73.3	  20.3	  21.9	  20.3	  80.3	  81.0	  75.3	  15.1	  17.0	  14.0	  989.1	  989.2	  988.2	 -13.5	 -10.6	 -15.2	65616	 65617	 25538	Snow, light	  39.2	  39.3	  39.1	  0.22	  1.37	  4.09	
2017	12	13	03	53	26 	  19.3	  21.1	  19.3	  78.4	 80.5	 73.3	  20.3	  21.9	  20.3	  79.7	  81.0	  75.3	  15.0	  17.0	  14.0	  989.1	  989.2	  988.2	 -12.8	 -10.6	 -15.2	61715	 65617	 25538	Snow, light	  39.2	  39.3	  39.1	  0.22	  1.37	  4.09	
2017	12	13	03	52	25 	  19.4	  21.1	  19.4	  78.4	 80.5	 73.3	  20.4	  22.0	  20.4	  79.9	  81.0	  75.3	  15.0	  17.0	  14.0	  989.1	  989.1	  988.2	 -13.5	 -10.6	 -15.2	42847	 65617	 25538	Snow, light	  39.2	  39.3	  39.1	  0.22	  1.37	  4.09	
2017	12	13	03	51	25 	  19.5	  21.2	  19.5	  78.7	 80.5	 73.3	  20.4	  22.2	  20.4	  80.3	  81.1	  75.3	  14.9	  17.3	  14.0	  989.1	  989.1	  988.1	 -13.5	 -10.6	 -15.2	27152	 65617	 25538	Snow, light	  39.2	  39.3	  39.1	  0.22	  1.37	  4.09	
2017	12	13	03	51	25 	  19.6	  21.2	  19.5	  78.7	 80.5	 73.3	  20.4	  22.2	  20.4	  80.4	  81.1	  75.3	  14.8	  17.3	  14.0	  989.1	  989.1	  988.1	 -13.5	 -10.6	 -15.2	25538	 65617	 25538	Snow, light	  39.2	  39.3	  39.1	  0.22	  1.37	  4.09	
2017	12	13	03	50	25 	  19.6	  21.3	  19.5	  78.4	 80.5	 73.3	  20.4	  22.2	  20.4	  80.0	  81.1	  75.3	  14.7	  17.3	  14.0	  989.1	  989.1	  988.1	 -12.7	 -10.6	 -15.2	48412	 65617	 28612	Snow, light	  39.2	  39.3	  39.1	  0.22	  1.37	  4.09	
2017	12	13	03	50	25 	  19.5	  21.3	  19.5	  77.8	 80.5	 73.3	  20.4	  22.2	  20.4	  79.3	  81.1	  75.3	  14.6	  17.3	  14.0	  989.1	  989.1	  988.1	 -12.7	 -10.6	 -15.2	65616	 65617	 28612	Snow, light	  39.2	  39.3	  39.1	  0.22	  1.37	  4.09	
2017	12	13	03	49	24 	  19.5	  21.4	  19.6	  77.2	 80.5	 73.3	  20.4	  22.3	  20.4	  78.8	  81.1	  75.3	  14.6	  17.3	  14.0	  989.1	  989.1	  988.1	 -12.1	 -10.6	 -15.2	65616	 65617	 28612	Snow, light	  39.2	  39.3	  39.1	  0.22	  1.37	  4.09	
2017	12	13	03	49	24 	  19.6	  21.4	  19.6	  76.9	 80.5	 73.3	  20.4	  22.3	  20.4	  78.4	  81.1	  75.3	  14.6	  17.3	  14.0	  989.1	  989.1	  988.1	 -12.1	 -10.6	 -15.2	65616	 65617	 28612	Snow, light	  39.2	  39.3	  39.1	  0.22	  1.37	  4.09	
2017	12	13	03	48	24 	  19.6	  21.6	  19.6	  76.7	 80.5	 73.3	  20.4	  22.4	  20.4	  78.2	  81.1	  75.3	  14.5	  17.3	  14.0	  989.0	  989.1	  988.1	 -12.9	 -10.6	 -15.2	65616	 65617	 22792	Snow, light	  39.2	  39.3	  39.2	  0.22	  1.37	  4.09	
2017	12	13	03	48	24 	  19.7	  21.6	  19.6	  76.8	 80.5	 73.3	  20.5	  22.4	  20.4	  78.2	  81.1	  75.3	  14.5	  17.3	  14.0	  989.0	  989.1	  988.1	 -12.9	 -10.6	 -15.2	49442	 65617	 22792	Snow, light	  39.2	  39.3	  39.2	  0.22	  1.37	  4.09	
2017	12	13	03	47	24 	  19.7	  21.6	  19.6	  76.8	 80.5	 73.3	  20.5	  22.4	  20.4	  78.2	  81.1	  75.3	  14.5	  17.3	  14.0	  988.9	  989.1	  988.1	 -12.1	 -10.6	 -15.2	47470	 65617	 22792	Snow, light	  39.2	  39.3	  39.2	  0.22	  1.37	  4.09	
2017	12	13	03	47	24 	  19.7	  21.6	  19.6	  76.6	 80.5	 73.3	  20.5	  22.4	  20.4	  77.9	  81.1	  75.3	  14.4	  17.3	  14.0	  988.9	  989.1	  988.1	 -12.1	 -10.6	 -15.2	65616	 65617	 22792	Snow, light	  39.2	  39.3	  39.2	  0.22	  1.37	  4.09	
2017	12	13	03	46	24 	  19.7	  21.6	  19.6	  76.2	 80.5	 73.3	  20.4	  22.4	  20.4	  77.4	  81.1	  75.3	  14.4	  17.3	  14.0	  988.9	  989.1	  987.9	 -12.1	 -10.6	 -15.2	65616	 65617	 22792	Snow, light	  39.2	  39.3	  39.2	  0.22	  1.37	  4.09	
2017	12	13	03	46	24 	  19.6	  21.6	  19.6	  75.7	 80.5	 73.3	  20.4	  22.4	  20.4	  76.9	  81.1	  75.3	  14.5	  17.3	  14.0	  988.9	  989.1	  987.9	 -12.1	 -10.6	 -15.2	65616	 65617	 22792	Snow, light	  39.2	  39.3	  39.2	  0.22	  1.37	  4.09	
2017	12	13	03	45	23 	  19.6	  21.6	  19.6	  75.5	 80.5	 73.3	  20.4	  22.5	  20.5	  76.7	  81.1	  75.3	  14.5	  17.3	  14.0	  989.0	  989.1	  987.9	 -12.5	 -10.6	 -15.2	63454	 65617	 22792	Snow, light	  39.2	  39.3	  39.2	  0.22	  1.37	  4.09	
2017	12	13	03	45	23 	  19.6	  21.6	  19.6	  75.7	 80.5	 73.3	  20.5	  22.5	  20.5	  76.9	  81.1	  75.3	  14.6	  17.3	  14.0	  989.0	  989.1	  987.9	 -12.5	 -10.6	 -15.2	50583	 65617	 22792	Snow, light	  39.2	  39.3	  39.2	  0.22	  1.37	  4.09	
2017	12	13	03	44	23 	  19.7	  21.6	  19.7	  76.1	 80.5	 73.3	  20.5	  22.5	  20.5	  77.3	  81.1	  75.3	  14.7	  17.3	  14.0	  989.0	  989.1	  987.9	 -11.1	 -10.6	 -15.2	52355	 65617	 22792	Snow, light	  39.2	  39.3	  39.2	  0.22	  1.37	  4.09	
2017	12	13	03	43	23 	  19.7	  21.6	  19.7	  76.3	 80.5	 73.3	  20.5	  22.5	  20.5	  77.3	  81.1	  75.3	  14.8	  17.3	  14.0	  989.1	  989.1	  987.8	 -10.9	 -10.6	 -15.2	65616	 65617	 22792	Snow, light	  39.2	  39.3	  39.2	  0.22	  1.37	  4.09	
2017	12	13	03	43	23 	  19.7	  21.6	  19.7	  75.9	 80.5	 73.3	  20.5	  22.5	  20.5	  76.9	  81.1	  75.3	  14.9	  17.3	  14.0	  989.0	  989.1	  987.8	 -10.9	 -10.6	 -15.2	65616	 65617	 22792	Snow showers, light	  39.2	  39.3	  39.2	  0.22	  1.37	  4.09	
2017	12	13	03	42	23 	  19.7	  21.6	  19.7	  75.7	 80.5	 73.3	  20.5	  22.5	  20.6	  76.6	  81.1	  75.3	  15.0	  17.3	  14.0	  988.9	  989.1	  987.8	 -10.6	 -10.6	 -15.2	65616	 65617	 22792	Snow showers, light	  39.2	  39.3	  39.2	  0.22	  1.37	  4.09	
2017	12	13	03	42	23 	  19.7	  21.6	  19.7	  75.7	 80.5	 73.3	  20.6	  22.5	  20.6	  76.7	  81.1	  75.3	  15.1	  17.3	  14.0	  988.9	  989.1	  987.8	 -10.6	 -10.6	 -15.2	65616	 65617	 22792	Snow showers, light	  39.2	  39.3	  39.2	  0.22	  1.37	  4.09	
2017	12	13	03	41	22 	  19.8	  21.7	  19.7	  76.1	 80.5	 73.3	  20.7	  22.5	  20.6	  77.2	  81.1	  75.3	  15.1	  17.3	  14.0	  989.0	  989.1	  987.8	 -12.3	 -11.0	 -15.2	65616	 65617	 22792	Snow showers, light	  39.2	  39.3	  39.2	  0.22	  1.37	  4.09	
2017	12	13	03	41	22 	  19.9	  21.7	  19.7	  76.7	 80.5	 73.3	  20.8	  22.5	  20.6	  77.8	  81.1	  75.3	  15.1	  17.3	  14.0	  988.9	  989.1	  987.8	 -12.3	 -11.0	 -15.2	65616	 65617	 22792	Snow showers, light	  39.2	  39.3	  39.2	  0.22	  1.37	  4.09	
2017	12	13	03	40	22 	  20.0	  21.7	  19.7	  77.0	 80.5	 73.3	  20.8	  22.5	  20.6	  78.1	  81.1	  75.3	  15.1	  17.3	  14.0	  989.0	  989.0	  987.8	 -12.3	 -11.0	 -15.2	65616	 65617	 22792	Freezing rain or freezing drizzle (prec. hour)	  39.2	  39.3	  39.2	  0.22	  1.37	  4.09	
2017	12	13	03	40	22 	  20.1	  21.7	  19.7	  77.3	 80.5	 73.3	  20.9	  22.5	  20.6	  78.5	  81.1	  75.3	  15.0	  17.3	  14.0	  988.9	  989.0	  987.8	 -12.3	 -11.0	 -15.2	65616	 65617	 22792	Freezing rain or freezing drizzle (prec. hour)	  39.2	  39.3	  39.2	  0.22	  1.37	  4.09	
2017	12	13	03	39	23 	  20.1	  21.7	  19.7	  77.1	 80.5	 73.3	  20.9	  22.5	  20.6	  78.3	  81.1	  75.3	  14.9	  17.3	  14.0	  988.9	  989.0	  987.8	 -11.4	 -11.0	 -15.2	65616	 65617	 22792	Freezing rain or freezing drizzle (prec. hour)	  39.2	  39.3	  39.2	  0.22	  1.37	  4.09	
2017	12	13	03	39	23 	  20.0	  21.7	  19.7	  76.7	 80.5	 73.3	  20.9	  22.5	  20.6	  78.2	  81.1	  75.3	  14.8	  17.3	  14.0	  989.0	  989.0	  987.8	 -11.4	 -11.0	 -15.2	65616	 65617	 22792	Freezing rain or freezing drizzle (prec. hour)	  39.2	  39.3	  39.2	  0.22	  1.37	  4.09	
2017	12	13	03	38	23 	  20.0	  21.7	  19.7	  76.5	 80.5	 73.3	  20.9	  22.5	  20.6	  78.3	  81.1	  75.3	  14.7	  17.3	  14.0	  989.0	  989.0	  987.8	 -13.3	 -11.0	 -15.2	65616	 65617	 22792	Freezing rain or freezing drizzle (prec. hour)	  39.2	  39.3	  39.2	  0.22	  1.37	  4.09	
2017	12	13	03	38	23 	  20.1	  21.7	  19.7	  76.7	 80.5	 73.3	  20.9	  22.5	  20.6	  78.7	  81.1	  75.3	  14.6	  17.3	  14.0	  989.0	  989.0	  987.8	 -13.3	 -11.0	 -15.2	65616	 65617	 22792	Freezing rain or freezing drizzle (prec. hour)	  39.2	  39.3	  39.2	  0.22	  1.37	  4.09	
2017	12	13	03	37	24 	  20.1	  21.7	  19.7	  76.6	 80.5	 73.3	  20.9	  22.5	  20.6	  78.7	  81.1	  75.3	  14.5	  17.3	  14.0	  988.9	  989.0	  987.8	 -12.0	 -11.0	 -15.2	65616	 65617	 22792	Freezing rain or freezing drizzle (prec. hour)	  39.2	  39.3	  39.2	  0.22	  1.37	  4.09	
2017	12	13	03	37	24 	  20.0	  21.7	  19.7	  76.1	 80.5	 73.3	  20.8	  22.5	  20.6	  78.2	  81.1	  75.3	  14.4	  17.3	  14.0	  988.9	  989.0	  987.8	 -12.0	 -11.0	 -15.2	65616	 65617	 22792	Freezing rain or freezing drizzle (prec. hour)	  39.2	  39.3	  39.2	  0.22	  1.37	  4.09	
2017	12	13	03	36	25 	  19.8	  21.7	  19.7	  74.5	 80.5	 73.0	  20.7	  22.5	  20.6	  76.7	  81.1	  75.3	  14.2	  17.3	  14.0	  988.9	  989.0	  987.8	 -11.2	 -11.0	 -15.2	65616	 65617	 22792	Freezing rain or freezing drizzle (prec. hour)	  39.2	  39.3	  39.2	  0.22	  1.37	  4.09	
2017	12	13	03	35	26 	  19.8	  21.7	  19.7	  73.9	 80.5	 72.7	  20.7	  22.5	  20.6	  76.2	  81.1	  75.3	  14.2	  17.3	  14.0	  988.9	  989.0	  987.8	 -12.5	 -11.0	 -15.2	65616	 65617	 22792	Freezing rain or freezing drizzle (prec. hour)	  39.2	  39.3	  39.2	  0.22	  1.37	  4.09	
2017	12	13	03	34	26 	  19.8	  21.7	  19.7	  73.7	 80.5	 72.4	  20.6	  22.5	  20.6	  76.0	  81.1	  75.1	  14.2	  17.3	  14.0	  988.8	  989.0	  987.8	 -13.4	 -11.0	 -15.2	65616	 65617	 22792	Freezing rain or freezing drizzle (prec. hour)	  39.2	  39.3	  39.2	  0.22	  1.37	  4.09	
2017	12	13	03	33	27 	  19.8	  21.7	  19.7	  73.4	 80.5	 72.4	  20.6	  22.5	  20.6	  75.6	  81.1	  75.1	  14.2	  17.3	  14.0	  988.9	  989.0	  987.8	 -12.7	 -11.0	 -15.2	65616	 65617	 22792	Freezing rain or freezing drizzle (prec. hour)	  39.2	  39.3	  39.2	  0.22	  1.37	  4.09	
2017	12	13	03	32	28 	  19.8	  21.7	  19.7	  73.4	 80.5	 72.4	  20.6	  22.5	  20.6	  75.3	  81.1	  75.1	  14.3	  17.3	  14.0	  988.9	  989.0	  987.8	 -13.0	 -11.0	 -15.2	65616	 65617	 22792	Freezing rain or freezing drizzle (prec. hour)	  39.2	  39.3	  39.2	  0.22	  1.37	  4.09	
2017	12	13	03	31	29 	  19.8	  21.7	  19.7	  73.9	 80.5	 72.4	  20.6	  22.5	  20.6	  75.9	  81.1	  75.1	  14.4	  17.3	  14.2	  988.8	  988.9	  987.8	 -12.3	 -11.0	 -15.2	65616	 65617	 22792	Freezing rain or freezing drizzle (prec. hour)	  39.2	  39.3	  39.2	  0.22	  1.37	  4.09	
2017	12	13	03	30	29 	  19.8	  21.7	  19.7	  74.2	 80.5	 72.4	  20.6	  22.5	  20.6	  76.0	  81.1	  75.1	  14.4	  17.3	  14.2	  988.9	  988.9	  987.8	 -12.3	 -11.0	 -15.2	65616	 65617	 22792	Drizzle, freezing, light	  39.2	  39.3	  39.2	  0.22	  1.37	  4.09	
2017	12	13	03	29	30 	  19.8	  21.7	  19.7	  74.4	 80.5	 72.4	  20.6	  22.5	  20.6	  76.0	  81.1	  75.1	  14.5	  17.3	  14.2	  988.8	  988.9	  987.8	 -12.8	 -11.0	 -15.2	65616	 65617	 22792	Drizzle, freezing, light	  39.2	  39.3	  39.2	  0.22	  1.37	  4.09	
2017	12	13	03	28	30 	  19.8	  21.7	  19.7	  74.9	 80.5	 72.4	  20.6	  22.5	  20.6	  76.3	  81.1	  75.1	  14.6	  17.3	  14.3	  988.7	  988.8	  987.8	 -12.7	 -11.0	 -15.2	65616	 65617	 22792	Drizzle, freezing, light	  39.2	  39.3	  39.2	  0.22	  1.37	  4.09	
2017	12	13	03	27	30 	  19.8	  21.7	  19.7	  75.5	 80.5	 72.4	  20.6	  22.5	  20.6	  77.1	  81.1	  75.1	  14.7	  17.3	  14.5	  988.8	  988.8	  987.8	 -12.7	 -11.0	 -15.2	65616	 65617	 22792	Drizzle, freezing, light	  39.2	  39.3	  39.2	  0.22	  1.37	  4.09	
2017	12	13	03	26	30 	  19.8	  21.7	  19.7	  75.8	 80.5	 72.4	  20.6	  22.5	  20.6	  77.3	  81.1	  75.1	  14.8	  17.3	  14.5	  988.8	  988.8	  987.8	 -13.1	 -10.9	 -15.2	65616	 65617	 22792	Drizzle, freezing, light	  39.2	  39.3	  39.2	  0.22	  1.37	  4.09	
2017	12	13	03	25	30 	  19.7	  21.7	  19.7	  75.6	 80.5	 72.4	  20.6	  22.6	  20.6	  77.0	  81.1	  75.1	  14.9	  17.3	  14.5	  988.6	  988.8	  987.8	 -12.3	 -10.9	 -15.2	65616	 65617	 22792	Drizzle, freezing, light	  39.2	  39.3	  39.2	  0.22	  1.37	  4.09	
2017	12	13	03	24	30 	  19.7	  21.8	  19.7	  75.7	 80.5	 72.4	  20.6	  22.6	  20.6	  77.3	  81.1	  75.1	  15.1	  17.3	  14.6	  988.7	  988.8	  987.8	 -11.1	 -10.9	 -15.2	65616	 65617	 22792	Drizzle, freezing, light	  39.2	  39.3	  39.2	  0.22	  1.37	  4.09	
2017	12	13	03	23	30 	  19.8	  21.8	  19.8	  75.9	 80.5	 72.4	  20.7	  22.6	  20.7	  77.7	  81.1	  75.1	  15.3	  17.3	  14.9	  988.6	  988.7	  987.8	 -11.9	 -10.9	 -15.2	65616	 65617	 22792	Drizzle, freezing, light	  39.2	  39.3	  39.2	  0.22	  1.37	  4.09	
2017	12	13	03	22	30 	  19.8	  21.8	  19.8	  76.3	 80.5	 72.4	  20.8	  22.6	  20.8	  77.9	  81.1	  75.1	  15.5	  17.3	  15.0	  988.6	  988.7	  987.8	 -11.7	 -10.9	 -15.2	65616	 65617	 22792	Drizzle, freezing, light	  39.2	  39.3	  39.2	  0.22	  1.37	  4.09	
2017	12	13	03	21	30 	  19.9	  21.8	  19.9	  76.6	 80.5	 72.4	  20.9	  22.6	  20.9	  78.2	  81.1	  75.1	  15.6	  17.3	  15.1	  988.6	  988.7	  987.8	 -13.1	 -10.9	 -15.2	65616	 65617	 22792	Drizzle, freezing, light	  39.2	  39.3	  39.2	  0.22	  1.37	  4.09	
2017	12	13	03	20	30 	  20.0	  21.9	  20.0	  77.3	 80.5	 72.4	  21.0	  22.7	  20.9	  79.1	  81.1	  75.1	  15.6	  17.3	  15.2	  988.5	  988.7	  987.8	 -13.9	 -10.9	 -15.2	65616	 65617	 22792	Drizzle, freezing, light	  39.2	  39.3	  39.2	  0.22	  1.37	  4.09	
2017	12	13	03	19	30 	  20.1	  22.0	  20.0	  77.7	 80.5	 72.4	  21.1	  22.9	  20.9	  79.7	  81.1	  75.1	  15.5	  17.3	  15.2	  988.6	  988.7	  987.8	 -12.8	 -10.9	 -15.2	65616	 65617	 22792	Drizzle, freezing, light	  39.2	  39.3	  39.2	  0.22	  1.37	  4.09	
2017	12	13	03	18	30 	  20.0	  22.1	  20.0	  77.4	 80.5	 72.4	  21.0	  23.0	  20.9	  79.3	  81.1	  75.1	  15.4	  17.3	  15.2	  988.5	  988.7	  987.8	 -12.6	 -10.9	 -15.2	65616	 65617	 22792	Drizzle, freezing, light	  39.2	  39.3	  39.2	  0.22	  1.37	  4.09	
2017	12	13	03	17	30 	  20.0	  22.3	  20.0	  77.0	 80.5	 72.4	  21.0	  23.1	  20.9	  79.2	  81.1	  75.1	  15.3	  17.3	  15.2	  988.5	  988.7	  987.8	 -13.6	 -10.9	 -15.2	65616	 65617	 22792	Drizzle, freezing, light	  39.2	  39.3	  39.2	  0.22	  1.37	  4.09	
2017	12	13	03	16	30 	  20.0	  22.4	  20.0	  77.1	 80.5	 72.4	  20.9	  23.2	  20.9	  79.0	  81.1	  75.1	  15.3	  17.3	  15.2	  988.5	  988.7	  987.8	 -13.6	 -10.5	 -15.2	65616	 65617	 22792	Drizzle, freezing, light	  39.2	  39.3	  39.2	  0.22	  1.37	  4.09	
2017	12	13	03	15	30 	  20.0	  22.4	  20.0	  76.9	 80.5	 72.4	  20.9	  23.2	  20.9	  78.7	  81.1	  75.1	  15.2	  17.3	  15.2	  988.5	  988.7	  987.8	 -13.4	 -10.5	 -15.2	65616	 65617	 22792	Drizzle, freezing, light	  39.2	  39.3	  39.2	  0.22	  1.37	  4.09	
2017	12	13	03	14	30 	  20.0	  22.4	  20.0	  76.8	 80.5	 72.4	  20.9	  23.2	  20.9	  78.4	  81.1	  75.1	  15.3	  17.3	  15.2	  988.6	  988.7	  987.8	 -15.1	  -9.9	 -15.2	65616	 65617	 22792	Drizzle, freezing, light	  39.2	  39.3	  39.2	  0.22	  1.37	  4.09	
2017	12	13	03	13	31 	  20.0	  22.4	  20.0	  76.8	 80.5	 71.2	  20.9	  23.2	  20.9	  78.3	  81.1	  74.2	  15.4	  17.3	  15.2	  988.5	  988.7	  987.8	 -15.1	  -9.3	 -15.2	65616	 65617	 22792	Drizzle, freezing, light	  39.2	  39.3	  39.2	  0.22	  1.37	  4.09	
2017	12	13	03	12	31 	  20.0	  22.4	  20.0	  76.5	 80.5	 70.0	  21.0	  23.2	  21.0	  78.1	  81.1	  73.0	  15.5	  17.3	  15.2	  988.6	  988.7	  987.8	 -12.9	  -9.3	 -15.2	65616	 65617	 22792	Drizzle, freezing, light	  39.2	  39.3	  39.2	  0.22	  1.37	  4.09	
2017	12	13	03	11	31 	  20.0	  22.4	  20.0	  76.4	 80.5	 69.6	  21.0	  23.2	  21.0	  78.0	  81.1	  72.3	  15.7	  17.3	  15.3	  988.5	  988.7	  987.6	 -13.6	  -9.3	 -15.2	65616	 65617	 22792	Drizzle, freezing, light	  39.2	  39.3	  39.2	  0.22	  1.37	  4.09	
2017	12	13	03	10	31 	  20.1	  22.4	  20.1	  76.5	 80.5	 69.2	  21.1	  23.2	  21.1	  78.1	  81.1	  71.7	  15.9	  17.3	  15.2	  988.5	  988.7	  987.6	 -14.2	  -9.3	 -15.2	52624	 65617	 22792	Drizzle, freezing, light	  39.2	  39.3	  39.2	  0.22	  1.37	  4.09	
2017	12	13	03	09	31 	  20.3	  22.4	  20.3	  77.4	 80.5	 69.2	  21.2	  23.2	  21.2	  78.8	  81.1	  71.7	  16.0	  17.3	  15.2	  988.5	  988.7	  987.6	 -15.2	  -9.3	 -15.2	65616	 65617	 22792	Drizzle, freezing, light	  39.2	  39.3	  39.2	  0.22	  1.37	  4.09	
2017	12	13	03	08	31 	  20.4	  22.4	  20.4	  78.0	 80.5	 69.2	  21.3	  23.2	  21.3	  79.0	  81.1	  71.7	  16.2	  17.3	  15.2	  988.5	  988.7	  987.6	 -14.6	  -9.3	 -14.6	61056	 65617	 22792	Drizzle, freezing, light	  39.2	  39.3	  39.2	  0.22	  1.37	  4.09	
2017	12	13	03	07	31 	  20.4	  22.4	  20.4	  78.3	 80.5	 69.2	  21.4	  23.2	  21.4	  79.1	  81.1	  71.7	  16.4	  17.3	  15.2	  988.6	  988.7	  987.6	 -14.1	  -9.3	 -14.6	65616	 65617	 22792	Drizzle, freezing, light	  39.2	  39.3	  39.2	  0.22	  1.37	  4.09	
2017	12	13	03	06	31 	  20.5	  22.4	  20.5	  78.4	 80.5	 69.2	  21.5	  23.2	  21.5	  79.3	  81.1	  71.7	  16.6	  17.3	  15.2	  988.5	  988.7	  987.6	 -14.5	  -9.1	 -14.6	48362	 65617	 22792	Drizzle, freezing, light	  39.2	  39.3	  39.2	  0.22	  1.37	  4.09	
2017	12	13	03	05	31 	  20.7	  22.4	  20.7	  79.0	 80.5	 69.2	  21.6	  23.2	  21.6	  79.9	  81.1	  71.7	  16.7	  17.3	  15.2	  988.5	  988.7	  987.6	 -13.5	  -9.1	 -14.6	65616	 65617	 22792	Drizzle, freezing, light	  39.2	  39.3	  39.2	  0.22	  1.37	  4.09	
2017	12	13	03	04	31 	  20.8	  22.4	  20.8	  78.7	 80.5	 69.2	  21.7	  23.2	  21.7	  79.5	  81.1	  71.7	  16.8	  17.3	  15.2	  988.5	  988.7	  987.6	 -14.3	  -9.1	 -14.6	65616	 65617	 22792	Drizzle, freezing, light	  39.2	  39.3	  39.2	  0.22	  1.37	  4.09	
2017	12	13	03	03	31 	  21.0	  22.5	  21.0	  79.4	 80.5	 69.2	  21.9	  23.2	  21.9	  80.2	  81.1	  71.7	  16.9	  17.3	  15.2	  988.5	  988.7	  987.6	 -14.6	  -8.6	 -14.6	65616	 65617	 22792	Drizzle, freezing, light	  39.2	  39.3	  39.2	  0.22	  1.37	  4.09	
2017	12	13	03	02	31 	  21.1	  22.5	  21.0	  80.0	 80.5	 69.2	  21.9	  23.3	  21.9	  80.8	  81.1	  71.7	  16.9	  17.3	  15.2	  988.5	  988.7	  987.6	 -13.3	  -8.5	 -13.7	65616	 65617	 22792	Drizzle, freezing, light	  39.2	  39.3	  39.2	  0.22	  1.37	  4.09	
2017	12	13	03	01	32 	  21.1	  22.6	  21.0	  80.2	 80.5	 69.2	  21.9	  23.3	  21.9	  80.9	  81.1	  71.7	  16.8	  17.6	  15.2	  988.5	  988.7	  987.6	 -11.2	  -8.5	 -13.7	65616	 65617	 22792	Drizzle, freezing, light	  39.2	  39.3	  39.2	  0.22	  1.37	  4.09	
2017	12	13	03	00	32 	  21.1	  22.6	  21.0	  80.0	 80.5	 69.2	  21.9	  23.3	  21.9	  80.5	  81.1	  71.7	  16.9	  17.6	  15.2	  988.6	  988.7	  987.6	 -11.0	  -8.5	 -13.7	65616	 65617	 22792	Drizzle, freezing, light	  39.2	  39.3	  39.2	  0.22	  1.37	  4.09	
2017	12	13	02	59	32 	  21.1	  22.6	  21.0	  80.2	 80.5	 69.2	  21.9	  23.3	  21.9	  80.6	  81.1	  71.7	  16.9	  17.6	  15.2	  988.5	  988.6	  987.6	 -12.3	  -8.5	 -13.7	65616	 65617	 22792	Drizzle, freezing, light	  39.2	  39.3	  39.2	  0.22	  1.37	  4.09	
2017	12	13	02	58	32 	  21.1	  22.6	  21.0	  80.1	 80.5	 69.2	  21.9	  23.3	  21.9	  80.6	  81.1	  71.7	  16.9	  17.6	  15.2	  988.4	  988.6	  987.6	 -12.4	  -8.5	 -13.7	65616	 65617	 22792	Drizzle, freezing, light	  39.2	  39.3	  39.2	  0.22	  1.37	  4.09	
2017	12	13	02	57	32 	  21.1	  22.6	  21.0	  80.2	 80.5	 69.2	  21.9	  23.3	  21.9	  80.8	  81.1	  71.7	  16.9	  17.6	  15.2	  988.4	  988.6	  987.6	 -12.7	  -8.5	 -13.7	65616	 65617	 22792	Drizzle, freezing, light	  39.2	  39.3	  39.2	  0.22	  1.37	  4.09	
2017	12	13	02	56	32 	  21.1	  22.6	  21.0	  80.4	 80.5	 69.2	  21.9	  23.3	  21.9	  80.8	  81.1	  71.7	  17.0	  17.6	  15.2	  988.5	  988.6	  987.6	 -12.5	  -7.5	 -13.7	60216	 65617	 22792	Drizzle, freezing, light	  39.2	  39.3	  39.2	  0.22	  1.37	  4.09	
2017	12	13	02	55	32 	  21.1	  22.6	  21.0	  80.3	 80.3	 69.2	  21.9	  23.3	  21.9	  80.9	  81.1	  71.7	  17.0	  17.6	  15.2	  988.5	  988.6	  987.6	 -11.2	  -7.5	 -13.7	63536	 65617	 22792	Drizzle, freezing, light	  39.2	  39.3	  39.2	  0.22	  1.37	  4.09	
2017	12	13	02	54	32 	  21.1	  22.6	  21.0	  80.0	 80.0	 69.2	  21.9	  23.3	  21.9	  80.7	  81.1	  71.7	  17.1	  17.6	  15.2	  988.5	  988.6	  987.6	 -11.3	  -7.5	 -13.7	53402	 65617	 22792	Drizzle, freezing, light	  39.2	  39.3	  39.2	  0.22	  1.37	  4.09	
2017	12	13	02	53	32 	  21.0	  22.6	  21.0	  79.8	 80.0	 69.2	  21.9	  23.3	  21.9	  80.5	  81.1	  71.7	  17.1	  17.6	  15.2	  988.3	  988.4	  987.6	 -12.3	  -7.5	 -13.7	48044	 65617	 22792	Drizzle, freezing, light	  39.2	  39.3	  39.2	  0.22	  1.37	  4.09	
2017	12	13	02	52	32 	  21.1	  22.6	  21.1	  79.9	 80.0	 69.2	  22.0	  23.3	  22.0	  80.7	  81.1	  71.7	  17.1	  17.6	  15.2	  988.3	  988.4	  987.6	 -13.7	  -7.5	 -13.7	36706	 65617	 22792	Drizzle, freezing, light	  39.2	  39.3	  39.2	  0.22	  1.37	  4.09	
2017	12	13	02	51	32 	  21.3	  22.6	  21.3	  80.0	 80.0	 69.2	  22.2	  23.3	  22.2	  81.1	  81.1	  71.7	  17.0	  17.6	  15.2	  988.3	  988.4	  987.6	 -13.4	  -7.5	 -13.6	28612	 65617	 22792	Drizzle, freezing, light	  39.2	  39.3	  39.2	  0.22	  1.37	  4.09	
2017	12	13	02	50	32 	  21.3	  22.6	  21.3	  79.5	 79.5	 69.2	  22.2	  23.3	  22.2	  80.6	  80.6	  71.7	  16.9	  17.6	  15.2	  988.3	  988.3	  987.6	 -12.6	  -7.5	 -13.6	63316	 65617	 22792	Drizzle, freezing, light	  39.2	  39.3	  39.2	  0.22	  1.37	  4.09	
2017	12	13	02	49	32 	  21.4	  22.6	  21.4	  79.1	 79.1	 69.2	  22.3	  23.3	  22.3	  80.3	  80.3	  71.7	  16.7	  17.6	  15.2	  988.3	  988.3	  987.6	 -12.9	  -7.5	 -13.6	35541	 65617	 22792	Drizzle, freezing, light	  39.2	  39.3	  39.2	  0.22	  1.37	  4.09	
2017	12	13	02	48	32 	  21.6	  22.6	  21.4	  78.4	 78.4	 69.2	  22.4	  23.3	  22.3	  79.8	  79.8	  71.7	  16.6	  17.6	  15.2	  988.2	  988.3	  987.6	 -13.1	  -7.5	 -13.6	34678	 65617	 34678	Drizzle, freezing, light	  39.2	  39.3	  39.2	  0.22	  1.37	  4.09	
2017	12	13	02	47	32 	  21.6	  22.6	  21.4	  77.3	 77.6	 69.2	  22.4	  23.3	  22.3	  78.8	  78.8	  71.7	  16.5	  17.6	  15.2	  988.1	  988.3	  987.6	 -11.8	  -7.5	 -13.6	62152	 65617	 38835	Drizzle, freezing, light	  39.2	  39.3	  39.2	  0.22	  1.37	  4.09	
2017	12	13	02	46	32 	  21.6	  22.6	  21.4	  76.0	 77.6	 69.2	  22.4	  23.3	  22.3	  77.7	  78.7	  71.7	  16.4	  17.6	  15.2	  988.2	  988.2	  987.6	 -12.9	  -7.5	 -13.6	65616	 65617	 38835	Drizzle, freezing, light	  39.2	  39.3	  39.2	  0.22	  1.37	  4.09	
2017	12	13	02	45	32 	  21.6	  22.6	  21.4	  75.5	 77.6	 69.2	  22.5	  23.3	  22.3	  77.4	  78.7	  71.7	  16.4	  17.6	  15.2	  988.1	  988.2	  987.6	 -13.4	  -7.5	 -13.6	65616	 65617	 38835	Drizzle, freezing, light	  39.2	  39.3	  39.2	  0.22	  1.37	  4.09	
2017	12	13	02	43	33 	  21.6	  22.6	  21.4	  74.9	 77.6	 69.2	  22.5	  23.3	  22.3	  76.9	  78.7	  71.7	  16.4	  17.6	  15.2	  988.1	  988.2	  987.6	 -11.6	  -7.5	 -13.6	65616	 65617	 38835	Drizzle, freezing, light	  39.2	  39.3	  39.2	  0.22	  1.37	  4.09	
2017	12	13	02	42	33 	  21.6	  22.6	  21.4	  74.9	 77.6	 69.2	  22.5	  23.3	  22.3	  77.0	  78.7	  71.7	  16.3	  17.6	  15.2	  988.1	  988.2	  987.6	 -12.7	  -7.5	 -13.6	65616	 65617	 38835	Drizzle, freezing, light	  39.2	  39.3	  39.2	  0.22	  1.37	  4.09	
2017	12	13	02	41	33 	  21.7	  22.6	  21.4	  74.9	 77.6	 69.2	  22.5	  23.3	  22.3	  77.1	  78.7	  71.7	  16.2	  17.6	  15.2	  988.0	  988.2	  987.6	 -13.6	  -7.5	 -13.6	65616	 65617	 38835	Drizzle, freezing, light	  39.2	  39.3	  39.2	  0.22	  1.37	  4.09	
2017	12	13	02	40	33 	  21.7	  22.6	  21.4	  74.5	 77.8	 69.2	  22.5	  23.3	  22.3	  76.8	  78.7	  71.7	  16.1	  17.7	  15.2	  988.1	  988.2	  987.5	 -11.6	  -7.5	 -13.4	65616	 65617	 38835	Drizzle, freezing, light	  39.2	  39.3	  39.2	  0.22	  1.37	  4.09	
2017	12	13	02	39	33 	  21.7	  22.6	  21.4	  74.8	 78.0	 69.2	  22.5	  23.3	  22.3	  77.1	  78.7	  71.7	  15.9	  17.7	  15.2	  988.1	  988.2	  987.5	 -11.1	  -7.5	 -13.4	65616	 65617	 38835	Drizzle, freezing, light	  39.2	  39.3	  39.2	  0.22	  1.37	  4.09	
2017	12	13	02	38	33 	  21.6	  22.6	  21.4	  74.7	 78.1	 69.2	  22.4	  23.4	  22.3	  77.1	  79.0	  71.7	  15.8	  17.8	  15.2	  988.1	  988.2	  987.5	 -11.6	  -7.5	 -13.4	65616	 65617	 38835	Drizzle, freezing, light	  39.2	  39.3	  39.2	  0.22	  1.37	  4.09	
2017	12	13	02	37	33 	  21.5	  22.7	  21.4	  73.8	 78.1	 69.2	  22.3	  23.4	  22.3	  76.1	  79.0	  71.7	  15.7	  17.8	  15.2	  988.0	  988.2	  987.5	 -11.0	  -7.5	 -13.4	65616	 65617	 38835	Drizzle, freezing, light	  39.2	  39.3	  39.2	  0.22	  1.37	  4.09	
2017	12	13	02	36	33 	  21.5	  22.7	  21.4	  73.3	 78.1	 69.2	  22.3	  23.4	  22.3	  75.8	  79.0	  71.7	  15.7	  17.8	  15.2	  988.0	  988.2	  987.5	 -11.6	  -7.5	 -13.4	65616	 65617	 32221	Drizzle, freezing, light	  39.2	  39.3	  39.2	  0.22	  1.37	  4.09	
2017	12	13	02	36	33 	  21.5	  22.7	  21.4	  72.9	 78.1	 69.2	  22.3	  23.4	  22.3	  75.4	  79.0	  71.7	  15.7	  17.8	  15.2	  988.1	  988.2	  987.5	 -11.6	  -7.5	 -13.4	65616	 65617	 32221	Drizzle, freezing, light	  39.2	  39.3	  39.2	  0.22	  1.37	  4.09	
2017	12	13	02	35	33 	  21.4	  22.7	  21.4	  72.7	 78.1	 69.2	  22.3	  23.4	  22.3	  75.4	  79.0	  71.7	  15.8	  17.8	  15.2	  988.1	  988.2	  987.5	 -11.2	  -7.5	 -13.4	65616	 65617	 32221	Snow showers, light	  39.2	  39.3	  39.2	  0.22	  1.37	  4.09	
2017	12	13	02	34	33 	  21.4	  22.8	  21.4	  72.4	 78.1	 69.2	  22.3	  23.6	  22.3	  75.1	  79.0	  71.7	  15.9	  17.8	  15.2	  988.1	  988.2	  987.5	 -11.5	  -7.5	 -13.4	65616	 65617	 32221	Snow showers, light	  39.2	  39.3	  39.2	  0.22	  1.37	  4.09	
2017	12	13	02	33	33 	  21.4	  22.8	  21.4	  72.7	 78.1	 69.2	  22.3	  23.6	  22.3	  75.3	  79.0	  71.7	  16.1	  17.8	  15.2	  988.0	  988.2	  987.4	 -12.0	  -7.5	 -13.4	65616	 65617	 32221	Snow showers, light	  39.2	  39.3	  39.2	  0.22	  1.37	  4.09	
2017	12	13	02	32	33 	  21.4	  23.0	  21.5	  73.0	 78.1	 69.2	  22.3	  23.7	  22.4	  75.6	  79.0	  71.7	  16.1	  17.8	  15.2	  988.0	  988.2	  987.4	 -12.4	  -7.5	 -13.4	65616	 65617	 32221	Snow showers, light	  39.2	  39.3	  39.2	  0.22	  1.37	  4.09	
2017	12	13	02	32	33 	  21.5	  23.0	  21.5	  73.4	 78.1	 69.2	  22.4	  23.7	  22.4	  75.9	  79.0	  71.7	  16.2	  17.8	  15.2	  988.1	  988.2	  987.4	 -12.4	  -7.5	 -13.4	65616	 65617	 32221	Snow showers, light	  39.2	  39.3	  39.2	  0.22	  1.37	  4.09	
2017	12	13	02	31	33 	  21.6	  23.0	  21.6	  74.2	 78.1	 69.2	  22.4	  23.8	  22.4	  76.3	  79.0	  71.7	  16.2	  17.8	  15.2	  988.0	  988.2	  987.4	 -13.4	  -7.5	 -13.4	65616	 65617	 32221	Snow showers, light	  39.2	  39.3	  39.2	  0.22	  1.37	  4.09	
2017	12	13	02	30	33 	  21.6	  23.1	  21.6	  74.8	 78.1	 69.2	  22.4	  23.8	  22.4	  76.7	  79.0	  71.7	  16.3	  17.8	  15.2	  988.0	  988.2	  987.4	 -12.8	  -7.5	 -12.8	65616	 65617	 32221	Snow showers, light	  39.2	  39.3	  39.2	  0.22	  1.37	  4.09	
2017	12	13	02	29	32 	  21.6	  23.1	  21.6	  74.7	 78.1	 69.2	  22.4	  23.8	  22.4	  76.5	  79.0	  71.7	  16.5	  17.8	  15.2	  988.1	  988.2	  987.4	 -11.8	  -7.5	 -12.0	63618	 65617	 32221	Snow showers, light	  39.2	  39.3	  39.2	  0.22	  1.37	  4.09	
2017	12	13	02	28	32 	  21.6	  23.1	  21.6	  74.9	 78.1	 69.2	  22.5	  23.8	  22.5	  76.7	  79.0	  71.7	  16.6	  17.8	  15.2	  988.0	  988.2	  987.4	 -11.4	  -7.5	 -12.0	62824	 65617	 32221	Snow showers, light	  39.2	  39.3	  39.2	  0.22	  1.37	  4.09	
2017	12	13	02	27	32 	  21.6	  23.1	  21.6	  75.2	 78.1	 69.2	  22.5	  23.8	  22.5	  76.8	  79.0	  71.7	  16.6	  17.8	  15.2	  988.1	  988.2	  987.4	 -10.9	  -7.5	 -12.0	65616	 65617	 32221	Snow showers, light	  39.2	  39.3	  39.2	  0.22	  1.37	  4.09	
2017	12	13	02	26	32 	  21.7	  23.1	  21.7	  75.6	 78.1	 69.2	  22.5	  23.8	  22.5	  77.3	  79.0	  71.7	  16.6	  17.8	  15.2	  988.1	  988.2	  987.1	 -11.7	  -7.5	 -12.0	65616	 65617	 32221	Snow showers, light	  39.2	  39.3	  39.2	  0.22	  1.37	  4.09	
2017	12	13	02	25	32 	  21.7	  23.1	  21.7	  76.3	 78.1	 69.2	  22.6	  23.8	  22.6	  77.8	  79.0	  71.7	  16.6	  17.8	  15.2	  988.0	  988.2	  987.1	 -11.8	  -7.5	 -12.0	65616	 65617	 32221	Snow, light	  39.2	  39.3	  39.2	  0.22	  1.37	  4.09	
2017	12	13	02	24	32 	  21.8	  23.1	  21.8	  76.6	 78.1	 69.2	  22.6	  23.8	  22.6	  78.1	  79.0	  71.7	  16.5	  17.8	  15.2	  988.0	  988.2	  987.1	 -11.4	  -7.5	 -12.1	65616	 65617	 32221	Snow, light	  39.2	  39.3	  39.2	  0.22	  1.37	  4.09	
2017	12	13	02	23	31 	  21.8	  23.1	  21.8	  76.3	 78.1	 69.2	  22.6	  23.8	  22.6	  77.8	  79.0	  71.7	  16.5	  17.8	  15.2	  988.1	  988.2	  987.1	 -11.7	  -7.5	 -12.4	65616	 65617	 32221	Snow, light	  39.2	  39.3	  39.2	  0.22	  1.37	  4.09	
2017	12	13	02	22	31 	  21.8	  23.1	  21.8	  75.5	 78.1	 69.2	  22.6	  23.8	  22.6	  77.1	  79.0	  71.7	  16.5	  17.8	  15.2	  988.0	  988.2	  987.0	 -12.0	  -7.5	 -12.4	65616	 65617	 32221	Snow, light	  39.2	  39.3	  39.2	  0.22	  1.37	  4.09	
2017	12	13	02	21	31 	  21.8	  23.2	  21.8	  75.1	 78.1	 69.2	  22.6	  23.8	  22.6	  76.8	  79.0	  71.7	  16.6	  17.9	  15.2	  988.0	  988.1	  987.0	 -11.1	  -7.5	 -12.4	65616	 65617	 32221	Snow, light	  39.2	  39.3	  39.2	  0.22	  1.37	  4.09	
2017	12	13	02	20	30 	  21.9	  23.2	  21.9	  74.3	 78.1	 69.2	  22.7	  23.8	  22.7	  76.2	  79.0	  71.7	  16.7	  17.9	  15.2	  988.1	  988.1	  986.8	 -11.8	  -7.5	 -12.5	65616	 65617	 32221	Snow, light	  39.2	  39.3	  39.2	  0.22	  1.37	  4.09	
2017	12	13	02	19	30 	  22.0	  23.2	  22.0	  74.2	 78.1	 69.2	  22.9	  23.8	  22.9	  76.0	  79.0	  71.7	  16.8	  17.9	  15.2	  988.0	  988.1	  986.7	 -11.5	  -7.5	 -12.5	65616	 65617	 32221	Snow, light	  39.2	  39.3	  39.2	  0.22	  1.37	  4.09	
2017	12	13	02	18	29 	  22.2	  23.3	  22.2	  74.2	 78.1	 69.2	  23.0	  23.8	  22.9	  76.0	  79.0	  71.7	  16.7	  17.9	  15.2	  988.0	  988.1	  986.7	 -11.3	  -7.5	 -12.5	65616	 65617	 22198	Snow, light	  39.2	  39.3	  39.2	  0.22	  1.37	  4.09	
2017	12	13	02	17	29 	  22.3	  23.3	  22.2	  74.9	 78.1	 69.2	  23.1	  23.8	  22.9	  76.9	  79.0	  71.7	  16.5	  17.9	  15.2	  987.9	  988.1	  986.7	 -10.5	  -7.5	 -12.5	65616	 65617	 22198	Snow, light	  39.2	  39.3	  39.2	  0.22	  1.37	  4.09	
2017	12	13	02	16	29 	  22.4	  23.3	  22.2	  74.9	 78.1	 69.2	  23.2	  23.8	  22.9	  77.1	  79.0	  71.7	  16.2	  17.9	  15.2	  988.0	  988.1	  986.7	 -10.6	  -7.5	 -12.5	65616	 65617	 22198	Snow, light	  39.2	  39.3	  39.2	  0.22	  1.37	  4.09	
2017	12	13	02	15	28 	  22.4	  23.3	  22.2	  74.4	 78.1	 69.2	  23.1	  23.8	  22.9	  76.8	  79.0	  71.7	  15.8	  17.9	  15.2	  988.0	  988.1	  986.7	  -9.9	  -7.5	 -12.5	38835	 65617	 22198	Snow, light	  39.2	  39.3	  39.2	  0.22	  1.37	  4.09	
2017	12	13	02	14	28 	  22.3	  23.3	  22.2	  72.7	 78.1	 69.2	  23.0	  23.8	  22.9	  75.4	  79.0	  71.7	  15.6	  17.9	  15.2	  988.0	  988.1	  986.6	  -9.3	  -7.5	 -12.5	65616	 65617	 22198	Snow, light	  39.2	  39.3	  39.2	  0.22	  1.37	  4.09	
2017	12	13	02	13	28 	  22.2	  23.3	  22.2	  71.0	 78.1	 69.2	  23.0	  23.8	  22.9	  73.9	  79.0	  71.7	  15.5	  18.0	  15.2	  988.0	  988.1	  986.5	 -10.7	  -7.5	 -12.5	65616	 65617	 22198	Snow, light	  39.2	  39.3	  39.2	  0.22	  1.37	  4.09	
2017	12	13	02	12	27 	  22.2	  23.3	  22.2	  69.9	 78.5	 69.2	  22.9	  23.8	  22.9	  72.8	  79.3	  71.7	  15.5	  18.2	  15.2	  987.8	  988.1	  986.5	 -10.9	  -7.5	 -13.2	65616	 65617	 22198	Snow showers, light	  39.2	  39.3	  39.2	  0.22	  1.37	  4.09	
2017	12	13	02	11	27 	  22.2	  23.3	  22.2	  69.5	 78.9	 69.2	  22.9	  23.8	  22.9	  72.1	  79.9	  71.7	  15.5	  18.4	  15.2	  988.0	  988.1	  986.5	 -10.6	  -7.5	 -13.2	65616	 65617	 22198	Snow showers, light	  39.2	  39.3	  39.2	  0.22	  1.37	  4.09	
2017	12	13	02	10	27 	  22.2	  23.3	  22.2	  69.2	 78.9	 69.2	  23.0	  23.8	  23.0	  71.7	  80.0	  71.7	  15.7	  18.4	  15.2	  987.9	  988.1	  986.5	 -10.6	  -7.5	 -13.2	65616	 65617	 17972	Snow showers, light	  39.2	  39.3	  39.2	  0.22	  1.37	  4.09	
2017	12	13	02	09	27 	  22.3	  23.3	  22.2	  69.9	 79.1	 69.9	  23.0	  23.8	  23.0	  72.2	  80.0	  72.2	  15.8	  18.4	  15.4	  988.0	  988.1	  986.5	 -10.5	  -7.5	 -13.2	65616	 65617	 10125	Snow showers, light	  39.2	  39.3	  39.2	  0.22	  1.37	  4.09	
2017	12	13	02	08	27 	  22.4	  23.3	  22.2	  71.1	 79.5	 70.9	  23.1	  23.8	  23.0	  73.4	  80.4	  72.9	  15.9	  18.6	  15.7	  988.0	  988.1	  986.5	 -10.3	  -7.5	 -13.4	65616	 65617	 10125	Snow showers, light	  39.2	  39.3	  39.2	  0.22	  1.37	  4.09	
2017	12	13	02	07	27 	  22.4	  23.3	  22.2	  71.1	 79.6	 70.9	  23.1	  23.8	  23.0	  73.3	  80.4	  72.9	  16.1	  18.6	  15.7	  988.0	  988.1	  986.5	  -9.1	  -7.5	 -13.4	65616	 65617	 10125	Snow showers, light	  39.2	  39.3	  39.2	  0.22	  1.37	  4.09	
2017	12	13	02	06	26 	  22.3	  23.3	  22.2	  70.9	 79.6	 70.9	  23.1	  23.9	  23.0	  72.9	  80.4	  72.9	  16.5	  18.6	  15.7	  988.0	  988.1	  986.5	  -9.9	  -7.5	 -13.4	65616	 65617	  6283	Snow showers, light	  39.2	  39.3	  39.2	  0.22	  1.37	  4.09	
2017	12	13	02	04	26 	  22.5	  23.5	  22.2	  72.7	 80.1	 72.7	  23.2	  24.0	  23.0	  74.2	  80.9	  74.2	  17.1	  19.0	  16.2	  988.0	  988.1	  986.5	  -8.6	  -7.5	 -13.4	65616	 65617	  6283	Snow showers, light	  39.2	  39.3	  39.2	  0.22	  1.37	  4.09	
2017	12	13	02	03	26 	  22.5	  23.5	  22.2	  74.0	 80.1	 73.4	  23.2	  24.0	  23.0	  75.0	  80.9	  75.0	  17.2	  19.0	  16.4	  988.0	  988.1	  986.5	  -8.5	  -7.5	 -13.4	65616	 65617	  6283	Snow showers, light	  39.2	  39.3	  39.2	  0.22	  1.37	  4.09	
2017	12	13	02	02	26 	  22.5	  23.5	  22.2	  75.7	 80.1	 73.4	  23.3	  24.0	  23.0	  76.6	  80.9	  75.2	  17.2	  19.0	  16.4	  988.0	  988.0	  986.5	  -9.1	  -7.5	 -13.4	65616	 65617	  6283	Snow showers, light	  39.2	  39.3	  39.2	  0.22	  1.37	  4.09	
2017	12	13	02	01	26 	  22.6	  23.5	  22.2	  77.5	 80.1	 73.4	  23.3	  24.0	  23.0	  78.5	  80.9	  75.2	  17.1	  19.0	  16.4	  988.0	  988.0	  986.5	  -9.6	  -7.5	 -13.4	65616	 65617	  6283	Snow showers, light	  39.2	  39.3	  39.2	  0.22	  1.37	  4.09	
2017	12	13	02	00	26 	  22.5	  23.5	  22.2	  77.5	 80.1	 73.4	  23.2	  24.0	  23.0	  78.7	  80.9	  75.2	  17.0	  19.0	  16.4	  987.9	  988.0	  986.5	  -9.9	  -7.5	 -13.4	59301	 65617	  6283	Snow showers, light	  39.2	  39.3	  39.2	  0.22	  1.37	  4.09	
2017	12	13	01	59	26 	  22.4	  23.5	  22.2	  76.8	 80.1	 73.4	  23.1	  24.0	  23.0	  77.9	  80.9	  75.2	  16.9	  19.0	  16.4	  987.8	  988.0	  986.5	 -10.1	  -7.5	 -13.4	65616	 65617	  5755	Snow showers, light	  39.2	  39.3	  39.2	  0.22	  1.37	  4.09	
2017	12	13	01	58	26 	  22.3	  23.5	  22.2	  76.1	 80.1	 73.4	  23.0	  24.0	  23.0	  77.1	  80.9	  75.2	  16.9	  19.0	  16.4	  987.9	  988.0	  986.5	  -9.5	  -7.5	 -13.4	65616	 65617	  5640	Snow showers, light	  39.2	  39.3	  39.2	  0.22	  1.37	  4.09	
2017	12	13	01	57	26 	  22.4	  23.5	  22.2	  75.9	 80.1	 73.4	  23.0	  24.0	  23.0	  76.8	  80.9	  75.2	  16.9	  19.0	  16.4	  988.0	  988.0	  986.5	  -7.5	  -7.5	 -13.4	65616	 65617	  5640	Snow showers, light	  39.2	  39.3	  39.2	  0.22	  1.37	  4.09	
2017	12	13	01	56	26 	  22.4	  23.5	  22.2	  75.7	 80.1	 73.4	  23.0	  24.0	  23.0	  76.6	  80.9	  75.2	  16.9	  19.0	  16.4	  988.0	  988.0	  986.5	  -8.9	  -8.5	 -13.4	65616	 65617	  5640	Snow showers, light	  39.2	  39.3	  39.2	  0.22	  1.37	  4.09	
2017	12	13	01	55	26 	  22.4	  23.5	  22.2	  75.8	 80.3	 73.4	  23.1	  24.0	  23.0	  76.9	  81.4	  75.2	  16.8	  19.0	  16.4	  988.0	  988.0	  986.5	  -9.6	  -8.5	 -13.4	65616	 65617	  4859	Snow showers, light	  39.2	  39.3	  39.2	  0.22	  1.37	  4.09	
2017	12	13	01	54	25 	  22.4	  23.5	  22.2	  75.7	 82.0	 73.4	  23.1	  24.0	  23.0	  76.9	  83.2	  75.2	  16.7	  19.3	  16.4	  988.0	  988.0	  986.5	  -8.8	  -8.5	 -13.4	65616	 65617	  4859	Snow showers, light	  39.2	  39.3	  39.2	  0.22	  1.37	  4.09	
2017	12	13	01	53	25 	  22.4	  23.5	  22.2	  75.7	 84.3	 73.4	  23.1	  24.0	  23.0	  77.1	  85.5	  75.2	  16.6	  19.8	  16.4	  987.9	  988.0	  986.5	  -9.3	  -8.5	 -13.4	65616	 65617	  4859	Snow showers, light	  39.2	  39.3	  39.2	  0.22	  1.37	  4.09	
2017	12	13	01	52	25 	  22.3	  23.5	  22.2	  74.9	 87.3	 73.4	  23.0	  24.0	  23.0	  76.7	  88.3	  75.2	  16.5	  20.3	  16.4	  988.0	  988.0	  986.5	  -9.0	  -8.5	 -13.4	65616	 65617	  4859	Snow showers, light	  39.2	  39.3	  39.2	  0.22	  1.37	  4.09	
2017	12	13	01	51	25 	  22.2	  23.5	  22.2	  73.8	 90.3	 73.4	  23.0	  24.0	  22.8	  75.6	  91.1	  75.2	  16.5	  20.6	  16.4	  987.9	  988.0	  986.5	  -9.7	  -8.5	 -13.4	65616	 65617	  4859	Snow showers, light	  39.2	  39.3	  39.2	  0.22	  1.37	  4.09	
2017	12	13	01	50	25 	  22.2	  23.5	  22.2	  73.6	 93.2	 73.4	  23.0	  24.0	  22.1	  75.4	  93.1	  75.2	  16.5	  20.6	  16.4	  988.0	  988.0	  986.5	 -10.7	  -8.5	 -13.4	65616	 65617	  4859	Ice pellets, light	  39.2	  39.3	  39.2	  0.22	  1.37	  4.09	
2017	12	13	01	49	25 	  22.3	  23.5	  21.7	  74.1	 95.4	 73.4	  23.0	  24.0	  21.0	  76.0	  94.0	  75.2	  16.5	  20.6	  16.4	  987.9	  988.0	  986.5	 -10.2	  -8.5	 -13.4	65616	 65617	  4616	Ice pellets, light	  39.2	  39.3	  39.2	  0.22	  1.37	  4.09	
2017	12	13	01	48	25 	  22.2	  23.5	  20.5	  73.9	 97.0	 73.4	  23.0	  24.0	  19.8	  75.9	  94.1	  75.2	  16.6	  20.6	  16.4	  987.9	  988.0	  986.5	  -9.2	  -8.5	 -13.4	65616	 65617	  4616	Ice pellets, light	  39.2	  39.3	  39.2	  0.22	  1.37	  4.09	
2017	12	13	01	47	25 	  22.3	  23.5	  19.2	  73.6	 97.6	 73.4	  23.1	  24.0	  18.7	  75.4	  94.1	  75.2	  16.7	  20.6	  16.4	  987.9	  988.0	  986.5	  -9.7	  -7.6	 -13.4	65616	 65617	  4616	Ice pellets, light	  39.2	  39.3	  39.2	  0.22	  1.37	  4.09	
2017	12	13	01	46	25 	  22.3	  23.5	  18.2	  73.5	 97.8	 73.5	  23.1	  24.0	  17.8	  75.2	  94.1	  75.2	  16.8	  20.6	  15.7	  987.9	  988.0	  986.5	 -10.7	  -7.6	 -13.4	65616	 65617	  4085	Ice pellets, light	  39.2	  39.3	  39.2	  0.22	  1.37	  4.09	
2017	12	13	01	45	25 	  22.3	  23.5	  17.3	  73.8	 97.8	 73.8	  23.1	  24.0	  17.1	  75.6	  94.1	  75.6	  17.1	  20.6	  14.8	  987.9	  988.0	  986.5	 -10.3	  -7.5	 -13.4	65616	 65617	  3681	Ice pellets, light	  39.2	  39.3	  39.2	  0.22	  1.37	  4.09	
2017	12	13	01	44	25 	  22.4	  23.5	  16.9	  74.5	 97.8	 74.4	  23.2	  24.0	  16.8	  76.1	  94.1	  76.0	  17.3	  20.6	  14.6	  987.9	  987.9	  986.5	  -9.2	   0.4	 -13.4	65616	 65617	  3661	Ice pellets, light	  39.2	  39.3	  39.2	  0.22	  1.37	  4.09	
2017	12	13	01	43	25 	  22.4	  23.5	  16.9	  75.1	 97.8	 74.4	  23.2	  24.0	  16.8	  76.4	  94.1	  76.0	  17.5	  20.6	  14.5	  987.8	  987.9	  986.5	  -8.5	  16.1	 -13.4	65616	 65617	  1299	Ice pellets, light	  39.2	  39.3	  39.2	  0.22	  1.37	  4.09	
2017	12	13	01	42	24 	  22.4	  23.5	  16.8	  75.8	 97.8	 74.4	  23.2	  24.0	  16.8	  76.9	  94.1	  76.0	  17.6	  20.6	  14.5	  987.8	  987.8	  986.5	 -10.5	  16.1	 -13.4	65616	 65617	  1207	Ice pellets, light	  39.2	  39.3	  39.2	  0.22	  1.37	  4.09	
2017	12	13	01	41	24 	  22.5	  23.5	  16.8	  77.3	 97.8	 74.4	  23.3	  24.0	  16.8	  78.3	  94.1	  76.0	  17.7	  20.6	  14.4	  987.7	  987.8	  986.5	 -11.2	  16.1	 -13.4	61204	 65617	  1207	Ice pellets, light	  39.2	  39.3	  39.2	  0.22	  1.37	  4.09	
2017	12	13	01	40	24 	  22.5	  23.5	  16.8	  77.7	 97.8	 74.4	  23.3	  24.0	  16.8	  78.5	  94.1	  76.0	  17.7	  20.6	  14.4	  987.7	  987.8	  986.5	 -10.1	  16.3	 -13.4	65616	 65617	  1207	Ice pellets, light	  39.2	  39.3	  39.2	  0.22	  1.37	  4.09	
2017	12	13	01	40	24 	  22.6	  23.5	  16.8	  77.9	 97.8	 74.4	  23.3	  24.0	  16.8	  78.6	  94.1	  76.0	  17.7	  20.6	  14.4	  987.7	  987.8	  986.5	 -10.1	  16.3	 -13.4	65616	 65617	  1207	Ice pellets, light	  39.2	  39.3	  39.2	  0.22	  1.37	  4.09	
2017	12	13	01	39	24 	  22.6	  23.5	  16.8	  78.0	 97.8	 74.4	  23.3	  24.0	  16.7	  78.7	  94.1	  76.0	  17.6	  20.6	  14.3	  987.7	  987.8	  986.5	 -10.1	  16.5	 -13.4	65616	 65617	  1207	Drizzle, freezing, light	  39.2	  39.3	  39.2	  0.22	  1.37	  4.09	
2017	12	13	01	38	24 	  22.6	  23.5	  16.8	  78.0	 97.8	 74.4	  23.4	  24.0	  16.7	  78.9	  94.1	  76.0	  17.6	  20.6	  14.3	  987.7	  987.8	  986.5	 -11.7	  16.5	 -13.4	65616	 65617	  1056	Drizzle, freezing, light	  39.2	  39.3	  39.2	  0.22	  1.37	  4.09	
2017	12	13	01	38	24 	  22.6	  23.5	  16.8	  78.1	 97.8	 74.4	  23.4	  24.0	  16.7	  79.0	  94.1	  76.0	  17.6	  20.6	  14.3	  987.6	  987.8	  986.5	 -11.7	  16.5	 -13.4	65616	 65617	  1056	Drizzle, freezing, light	  39.2	  39.3	  39.2	  0.22	  1.37	  4.09	
2017	12	13	01	37	24 	  22.7	  23.5	  16.7	  77.8	 97.8	 74.4	  23.4	  24.0	  16.7	  78.8	  94.1	  76.0	  17.5	  20.6	  14.2	  987.6	  987.8	  986.5	 -10.7	  16.5	 -13.4	65616	 65617	   955	Drizzle, freezing, light	  39.2	  39.3	  39.2	  0.22	  1.37	  4.09	
2017	12	13	01	37	24 	  22.7	  23.5	  16.7	  77.5	 97.8	 74.4	  23.4	  24.0	  16.7	  78.5	  94.1	  76.0	  17.5	  20.6	  14.2	  987.6	  987.8	  986.5	 -10.7	  16.5	 -13.4	65616	 65617	   955	Rain, freezing, light	  39.2	  39.3	  39.2	  0.22	  1.37	  4.09	
2017	12	13	01	36	24 	  22.6	  23.5	  16.7	  76.5	 97.8	 74.4	  23.4	  24.0	  16.6	  77.6	  94.1	  76.0	  17.5	  20.6	  14.2	  987.6	  987.8	  986.5	 -10.3	  16.5	 -13.4	33927	 65617	   955	Rain, freezing, light	  39.2	  39.3	  39.2	  0.22	  1.37	  4.09	
2017	12	13	01	35	24 	  22.6	  23.5	  16.7	  76.1	 97.8	 74.4	  23.5	  24.0	  16.6	  77.6	  94.1	  76.0	  17.5	  20.6	  14.1	  987.6	  987.8	  986.5	 -10.6	  16.5	 -13.4	65616	 65617	   938	Rain, freezing, light	  39.2	  39.3	  39.2	  0.22	  1.37	  4.09	
2017	12	13	01	34	24 	  22.8	  23.5	  16.6	  75.8	 97.8	 74.4	  23.6	  24.0	  16.6	  77.4	  94.1	  76.0	  17.5	  20.6	  14.1	  987.5	  987.8	  986.5	 -10.2	  16.5	 -13.4	65616	 65617	   928	Rain, freezing, light	  39.2	  39.3	  39.2	  0.22	  1.37	  4.09	
2017	12	13	01	33	25 	  22.9	  23.5	  16.6	  75.2	 97.8	 74.4	  23.7	  24.0	  16.6	  76.9	  94.1	  76.0	  17.4	  20.6	  14.1	  987.6	  987.8	  986.5	 -10.9	  16.5	 -13.4	65616	 65617	   928	Rain, freezing, light	  39.2	  39.3	  39.2	  0.22	  1.37	  4.09	
2017	12	13	01	32	25 	  23.0	  23.5	  16.6	  75.5	 97.8	 74.4	  23.8	  24.0	  16.6	  77.2	  94.1	  76.0	  17.3	  20.6	  14.1	  987.5	  987.8	  986.5	 -11.7	  16.5	 -13.4	65616	 65617	   928	Rain, freezing, light	  39.2	  39.3	  39.2	  0.22	  1.37	  4.09	
2017	12	13	01	30	25 	  23.1	  23.5	  16.6	  74.8	 97.8	 74.4	  23.7	  24.0	  16.6	  76.3	  94.1	  76.0	  17.2	  20.6	  14.1	  987.5	  987.8	  986.5	  -8.9	  16.5	 -13.4	65616	 65617	   928	Rain, freezing, light	  39.2	  39.3	  39.2	  0.22	  1.37	  4.09	
2017	12	13	01	29	25 	  23.0	  23.5	  16.6	  74.6	 97.8	 74.4	  23.6	  24.0	  16.6	  76.1	  94.1	  76.0	  17.2	  20.6	  14.1	  987.5	  987.8	  986.5	  -8.7	  16.5	 -13.4	65616	 65617	   928	Rain, freezing, light	  39.2	  39.3	  39.2	  0.22	  1.37	  4.09	
2017	12	13	01	28	25 	  22.9	  23.5	  16.6	  74.8	 97.8	 74.4	  23.5	  24.0	  16.6	  76.3	  94.1	  76.0	  17.2	  20.6	  14.1	  987.5	  987.8	  986.5	  -9.8	  16.5	 -13.4	65616	 65617	   928	Rain, freezing, light	  39.2	  39.3	  39.2	  0.22	  1.37	  4.09	
2017	12	13	01	27	24 	  22.8	  23.5	  16.6	  74.6	 97.8	 74.4	  23.5	  24.0	  16.6	  76.1	  94.1	  76.0	  17.3	  20.6	  14.1	  987.3	  987.8	  986.5	 -11.6	  16.5	 -13.4	65616	 65617	   928	Rain, freezing, light	  39.2	  39.3	  39.2	  0.22	  1.37	  4.09	
2017	12	13	01	26	24 	  22.9	  23.5	  16.6	  74.6	 97.8	 74.4	  23.6	  24.0	  16.6	  76.1	  94.1	  76.0	  17.5	  20.6	  14.0	  987.3	  987.8	  986.5	 -11.9	  16.5	 -13.4	65616	 65617	   928	Rain, freezing, light	  39.2	  39.3	  39.2	  0.22	  1.37	  4.09	
2017	12	13	01	24	25 	  23.0	  23.5	  16.6	  75.1	 97.8	 74.4	  23.7	  24.0	  16.6	  76.5	  94.1	  76.0	  17.7	  20.6	  13.9	  987.3	  987.8	  986.5	 -12.4	  16.5	 -13.4	65616	 65617	   928	Rain, freezing, light	  39.2	  39.3	  39.2	  0.22	  1.37	  4.09	
2017	12	13	01	23	24 	  23.0	  23.5	  16.6	  75.3	 97.8	 74.4	  23.7	  24.0	  16.6	  76.6	  94.1	  76.0	  17.7	  20.6	  13.9	  987.1	  987.8	  986.5	 -12.3	  16.5	 -13.4	50114	 65617	   928	Rain, freezing, light	  39.2	  39.3	  39.2	  0.22	  1.37	  4.09	
2017	12	13	01	22	24 	  23.1	  23.5	  16.6	  76.0	 97.8	 74.4	  23.8	  24.0	  16.6	  77.4	  94.1	  76.0	  17.7	  20.6	  13.9	  987.2	  987.8	  986.5	 -12.4	  16.5	 -13.4	40446	 65617	   928	Rain, freezing, light	  39.2	  39.3	  39.2	  0.22	  1.37	  4.09	
2017	12	13	01	21	24 	  23.2	  23.5	  16.6	  76.4	 97.8	 74.4	  23.8	  24.0	  16.6	  77.8	  94.1	  76.0	  17.7	  20.6	  13.9	  987.1	  987.8	  986.5	 -12.5	  16.5	 -13.4	65616	 65617	   928	Rain, freezing, light	  39.2	  39.3	  39.2	  0.22	  1.37	  4.09	
2017	12	13	01	21	24 	  23.2	  23.5	  16.6	  76.4	 97.8	 74.4	  23.8	  24.0	  16.6	  77.8	  94.1	  76.0	  17.6	  20.6	  13.9	  987.0	  987.8	  986.5	 -12.5	  16.5	 -13.4	65616	 65617	   928	Rain, freezing, light	  39.2	  39.3	  39.2	  0.22	  1.37	  4.09	
2017	12	13	01	20	24 	  23.2	  23.5	  16.6	  76.1	 97.8	 74.4	  23.8	  24.0	  16.6	  77.6	  94.1	  76.0	  17.6	  20.6	  13.9	  986.9	  987.8	  986.5	 -12.1	  16.5	 -13.4	65616	 65617	   928	Rain, freezing, light	  39.2	  39.3	  39.2	  0.22	  1.37	  4.09	
2017	12	13	01	20	24 	  23.2	  23.5	  16.6	  76.1	 97.8	 74.4	  23.8	  24.0	  16.6	  77.5	  94.1	  76.0	  17.6	  20.6	  13.9	  987.0	  987.8	  986.5	 -12.1	  16.5	 -13.4	65616	 65617	   928	Rain, freezing, light	  39.2	  39.3	  39.2	  0.22	  1.37	  4.09	
2017	12	13	01	19	24 	  23.2	  23.5	  16.6	  75.8	 97.8	 74.4	  23.8	  24.0	  16.6	  77.3	  94.1	  76.0	  17.6	  20.6	  13.9	  987.1	  987.8	  986.5	 -12.5	  16.5	 -13.4	65616	 65617	   928	Rain, freezing, light	  39.2	  39.3	  39.2	  0.22	  1.37	  4.09	
2017	12	13	01	19	24 	  23.2	  23.5	  16.6	  75.5	 97.8	 74.4	  23.8	  24.0	  16.6	  77.2	  94.1	  76.0	  17.6	  20.6	  13.9	  987.1	  987.8	  986.5	 -12.5	  16.5	 -13.4	22985	 65617	   928	Rain, freezing, light	  39.2	  39.3	  39.2	  0.22	  1.37	  4.09	
2017	12	13	01	18	24 	  23.3	  23.5	  16.6	  75.5	 97.8	 74.4	  23.8	  24.0	  16.6	  77.1	  94.1	  76.0	  17.6	  20.6	  13.9	  987.0	  987.9	  986.5	 -11.9	  16.5	 -13.4	22198	 65617	   928	Rain, freezing, light	  39.2	  39.3	  39.2	  0.22	  1.37	  4.09	
2017	12	13	01	18	24 	  23.3	  23.5	  16.6	  75.4	 97.8	 74.4	  23.8	  24.0	  16.6	  77.1	  94.1	  76.0	  17.6	  20.6	  13.9	  987.1	  987.9	  986.5	 -11.9	  16.5	 -13.4	28205	 65617	   928	Rain, freezing, light	  39.2	  39.3	  39.2	  0.22	  1.37	  4.09	
2017	12	13	01	17	24 	  23.2	  23.5	  16.6	  75.0	 97.8	 74.4	  23.8	  24.0	  16.6	  76.7	  94.1	  76.0	  17.7	  20.6	  13.9	  987.1	  987.9	  986.5	 -11.9	  16.5	 -13.4	65616	 65617	   928	Rain, freezing, light	  39.2	  39.3	  39.2	  0.22	  1.37	  4.09	
2017	12	13	01	17	24 	  23.1	  23.5	  16.6	  74.6	 97.8	 74.4	  23.7	  24.0	  16.6	  76.2	  94.1	  76.0	  17.7	  20.6	  13.9	  987.0	  987.9	  986.5	 -11.9	  16.5	 -13.4	44209	 65617	   928	Rain, freezing, light	  39.2	  39.3	  39.2	  0.22	  1.37	  4.09	
2017	12	13	01	16	24 	  23.1	  23.5	  16.6	  74.5	 97.8	 75.1	  23.7	  24.0	  16.6	  76.0	  94.1	  76.4	  17.8	  20.6	  13.9	  986.9	  987.9	  986.5	 -12.5	  16.5	 -13.4	35091	 65617	   928	Rain, freezing, light	  39.2	  39.3	  39.2	  0.22	  1.37	  4.09	
2017	12	13	01	16	24 	  23.1	  23.5	  16.6	  75.1	 97.8	 75.1	  23.7	  24.0	  16.6	  76.4	  94.1	  76.4	  17.9	  20.6	  13.9	  986.9	  987.9	  986.5	 -12.5	  16.5	 -13.4	31729	 65617	   928	Rain, freezing, light	  39.2	  39.3	  39.2	  0.22	  1.37	  4.09	
2017	12	13	01	15	24 	  23.1	  23.5	  16.6	  75.8	 97.8	 76.3	  23.7	  24.0	  16.6	  77.0	  94.1	  77.5	  18.0	  20.6	  13.9	  986.9	  988.0	  986.5	 -11.6	  16.5	 -13.4	45685	 65617	   928	Rain, freezing, light	  39.2	  39.3	  39.2	  0.22	  1.37	  4.09	
2017	12	13	01	15	24 	  23.1	  23.5	  16.6	  76.3	 97.8	 76.3	  23.7	  24.0	  16.6	  77.5	  94.1	  77.5	  18.1	  20.6	  13.9	  987.0	  988.0	  986.5	 -11.6	  16.5	 -13.4	65616	 65617	   928	Rain, freezing, light	  39.2	  39.3	  39.2	  0.22	  1.37	  4.09	
2017	12	13	01	14	24 	  23.1	  23.5	  16.6	  76.9	 97.8	 77.3	  23.7	  24.0	  16.6	  77.9	  94.1	  78.3	  18.1	  20.6	  13.9	  986.9	  988.0	  986.5	 -12.2	  16.5	 -13.4	47627	 56079	   928	Rain, freezing, light	  39.2	  39.3	  39.2	  0.22	  1.37	  4.09	
2017	12	13	01	14	24 	  23.1	  23.5	  16.6	  77.3	 97.8	 77.3	  23.7	  24.0	  16.6	  78.3	  94.1	  78.3	  18.2	  20.6	  13.9	  987.0	  988.0	  986.5	 -12.2	  16.5	 -13.4	39960	 56079	   928	Rain, freezing, light	  39.2	  39.3	  39.2	  0.22	  1.37	  4.09	
2017	12	13	01	13	24 	  23.0	  23.5	  16.6	  77.6	 97.8	 77.8	  23.6	  24.0	  16.6	  78.5	  94.1	  78.7	  18.2	  20.6	  13.9	  987.2	  988.0	  986.5	 -13.2	  16.5	 -13.4	49678	 56079	   928	Rain, freezing, light	  39.2	  39.3	  39.2	  0.22	  1.37	  4.09	
2017	12	13	01	13	24 	  23.0	  23.5	  16.6	  77.8	 97.8	 77.8	  23.6	  24.0	  16.6	  78.7	  94.1	  78.7	  18.3	  20.6	  13.9	  987.0	  988.0	  986.5	 -13.2	  16.5	 -13.4	40114	 56079	   928	Rain, freezing, light	  39.2	  39.3	  39.2	  0.22	  1.37	  4.09	
2017	12	13	01	12	24 	  23.0	  23.5	  16.6	  78.2	 97.8	 78.3	  23.6	  24.0	  16.6	  79.1	  94.1	  79.5	  18.4	  20.6	  13.9	  987.0	  988.0	  986.5	 -13.2	  16.5	 -13.4	29790	 56079	   928	Rain, freezing, light	  39.2	  39.3	  39.2	  0.22	  1.37	  4.09	
2017	12	13	01	11	24 	  23.0	  23.5	  16.6	  78.9	 97.8	 78.3	  23.6	  24.0	  16.6	  79.9	  94.1	  79.7	  18.5	  20.6	  13.9	  987.0	  988.1	  986.5	 -12.6	  16.5	 -13.4	43244	 56079	   928	Snow, light	  39.2	  39.3	  39.2	  0.22	  1.37	  4.09	
2017	12	13	01	11	24 	  23.0	  23.5	  16.6	  78.9	 97.8	 78.3	  23.6	  24.0	  16.6	  80.0	  94.1	  79.7	  18.5	  20.6	  13.9	  987.0	  988.1	  986.5	 -12.6	  16.5	 -13.4	36292	 56079	   928	Snow, light	  39.2	  39.3	  39.2	  0.22	  1.37	  4.09	
2017	12	13	01	10	24 	  22.9	  23.5	  16.6	  78.8	 97.8	 78.3	  23.6	  24.0	  16.6	  79.9	  94.1	  79.7	  18.5	  20.6	  13.9	  987.1	  988.1	  986.5	 -13.1	  16.5	 -13.4	17972	 56079	   928	Snow, light	  39.2	  39.3	  39.2	  0.22	  1.37	  4.09	
2017	12	13	01	10	24 	  22.9	  23.5	  16.6	  78.8	 97.8	 78.3	  23.6	  24.0	  16.6	  79.7	  94.1	  79.7	  18.6	  20.6	  13.9	  987.1	  988.1	  986.5	 -13.1	  16.5	 -13.4	10360	 56079	   928	Snow, light	  39.2	  39.3	  39.2	  0.22	  1.37	  4.09	
2017	12	13	01	09	23 	  23.0	  23.5	  16.6	  78.9	 97.8	 78.3	  23.6	  24.0	  16.6	  79.8	  94.1	  79.7	  18.6	  20.6	  13.9	  987.0	  988.1	  986.5	 -13.4	  16.5	 -13.4	10124	 56079	   928	Snow, light	  39.2	  39.3	  39.2	  0.22	  1.37	  4.09	
2017	12	13	01	09	23 	  23.0	  23.5	  16.6	  79.1	 97.8	 78.3	  23.7	  24.0	  16.6	  80.0	  94.1	  79.7	  18.7	  20.6	  13.9	  987.0	  988.1	  986.5	 -13.4	  16.5	 -13.4	18346	 56079	   928	Snow, light	  39.2	  39.3	  39.2	  0.22	  1.37	  4.09	
2017	12	13	01	08	23 	  23.0	  23.5	  16.6	  79.3	 97.8	 78.3	  23.7	  24.0	  16.6	  80.2	  94.1	  79.7	  18.7	  20.6	  13.9	  987.1	  988.1	  986.5	 -13.3	  16.5	 -13.3	18254	 56079	   928	Snow, light	  39.2	  39.3	  39.2	  0.22	  1.37	  4.09	
2017	12	13	01	08	23 	  23.1	  23.5	  16.6	  79.5	 97.8	 78.3	  23.8	  24.0	  16.6	  80.4	  94.1	  79.7	  18.8	  20.6	  13.9	  987.2	  988.1	  986.5	 -13.3	  16.5	 -13.3	19087	 56079	   928	Snow, light	  39.2	  39.3	  39.2	  0.22	  1.37	  4.09	
2017	12	13	01	07	23 	  23.2	  23.5	  16.6	  79.6	 97.8	 78.3	  23.8	  24.0	  16.6	  80.4	  94.1	  79.7	  18.8	  20.6	  13.9	  987.1	  988.2	  986.5	 -13.3	  16.5	 -13.3	11286	 56079	   928	Snow, light	  39.2	  39.3	  39.2	  0.22	  1.37	  4.09	
2017	12	13	01	07	23 	  23.2	  23.5	  16.6	  79.6	 97.8	 78.3	  23.8	  24.0	  16.6	  80.3	  94.1	  79.7	  18.8	  20.6	  13.9	  987.0	  988.2	  986.5	 -13.3	  16.5	 -13.3	 8618	 56079	   928	Snow, light	  39.2	  39.3	  39.2	  0.22	  1.37	  4.09	
2017	12	13	01	06	23 	  23.2	  23.5	  16.6	  79.5	 97.8	 78.3	  23.9	  24.0	  16.6	  80.1	  94.1	  79.7	  18.8	  20.6	  13.9	  987.0	  988.2	  986.5	 -12.9	  16.5	 -12.9	 6282	 56079	   928	Snow, light	  39.2	  39.3	  39.2	  0.22	  1.37	  4.09	
2017	12	13	01	06	23 	  23.3	  23.5	  16.6	  79.4	 97.8	 78.3	  23.9	  24.0	  16.6	  80.0	  94.1	  79.7	  18.8	  20.6	  13.9	  987.0	  988.2	  986.5	 -12.9	  16.5	 -12.9	 8428	 56079	   928	Snow, light	  39.2	  39.3	  39.2	  0.22	  1.37	  4.09	
2017	12	13	01	05	23 	  23.4	  23.5	  16.6	  79.7	 97.8	 78.3	  24.0	  24.0	  16.6	  80.3	  94.1	  79.7	  18.8	  20.6	  13.9	  987.0	  988.2	  986.5	 -12.1	  16.5	 -12.2	 7395	 56079	   928	Snow, light	  39.2	  39.3	  39.2	  0.22	  1.37	  4.09	
2017	12	13	01	05	23 	  23.5	  23.5	  16.6	  80.0	 97.8	 78.3	  24.0	  24.0	  16.6	  80.7	  94.1	  79.7	  18.7	  20.6	  13.9	  987.1	  988.2	  986.5	 -12.1	  16.5	 -12.2	14780	 56079	   928	Snow, light	  39.2	  39.3	  39.2	  0.22	  1.37	  4.09	
2017	12	13	01	04	22 	  23.5	  23.5	  16.6	  80.1	 97.8	 78.3	  24.0	  24.0	  16.6	  80.8	  94.1	  79.7	  18.7	  20.6	  13.9	  987.2	  988.2	  986.5	 -12.1	  16.5	 -12.2	24530	 56079	   928	Snow, light	  39.2	  39.3	  39.2	  0.22	  1.37	  4.09	
2017	12	13	01	04	22 	  23.5	  23.5	  16.6	  79.7	 97.8	 78.3	  24.0	  24.0	  16.6	  80.5	  94.1	  79.7	  18.6	  20.6	  13.9	  987.2	  988.2	  986.5	 -12.1	  16.5	 -12.2	41095	 56079	   928	Snow, light	  39.2	  39.3	  39.2	  0.22	  1.37	  4.09	
2017	12	13	01	03	22 	  23.5	  23.5	  16.6	  79.4	 97.8	 78.3	  24.0	  23.9	  16.6	  80.2	  94.1	  79.7	  18.6	  20.6	  13.9	  987.2	  988.2	  986.5	 -11.5	  16.5	 -12.2	44908	 56079	   928	Snow, light	  39.2	  39.3	  39.2	  0.22	  1.37	  4.09	
2017	12	13	01	03	22 	  23.5	  23.5	  16.6	  79.3	 97.8	 78.3	  23.9	  23.9	  16.6	  80.1	  94.1	  79.7	  18.6	  20.6	  13.9	  987.1	  988.2	  986.5	 -11.5	  16.5	 -12.2	44150	 56079	   928	Snow, light	  39.2	  39.3	  39.2	  0.22	  1.37	  4.09	

Wind data

Year   mnth   day   hh    mm     ss       ff    dd

2017	12	13	09	28	32 	  25.3	  295	
2017	12	13	08	56	29 	  25.9	  291	
2017	12	13	08	33	25 	  25.9	  279	
2017	12	13	08	06	32 	  26.8	  295	
2017	12	13	07	56	13 	  32.0	  297	
2017	12	13	07	51	55 	  22.4	  288	
2017	12	13	07	51	14 	  25.5	  290	
2017	12	13	07	47	17 	  18.1	  309	
2017	12	13	07	44	55 	  26.4	  293	
2017	12	13	06	24	17 	  24.4	  300	
2017	12	13	04	36	33 	  26.2	  281	
2017	12	13	04	32	32 	  23.5	  307	
2017	12	13	04	31	32 	  23.3	  303	
2017	12	13	04	31	32 	  30.9	  299	
2017	12	13	04	30	32 	  27.1	  314	
2017	12	13	04	29	31 	  23.7	  312	
2017	12	13	04	28	31 	  28.0	  304	
2017	12	13	04	27	31 	  26.2	  309	
2017	12	13	04	27	31 	  25.7	  299	
2017	12	13	04	26	30 	  25.5	  296	
2017	12	13	04	26	30 	  26.6	  305	
2017	12	13	04	25	30 	  25.1	  301	
2017	12	13	04	25	30 	  30.0	  314	
2017	12	13	04	24	30 	  21.0	  301	
2017	12	13	04	24	30 	  26.4	  306	
2017	12	13	04	23	30 	  30.2	  310	
2017	12	13	04	23	30 	  28.0	  311	
2017	12	13	04	22	29 	  30.4	  304	
2017	12	13	04	22	29 	  24.8	  307	
2017	12	13	04	21	29 	  30.2	  304	
2017	12	13	04	21	29 	  27.5	  292	
2017	12	13	04	20	29 	  30.0	  303	
2017	12	13	04	20	29 	  23.7	  313	
2017	12	13	04	19	29 	  19.7	  314	
2017	12	13	04	19	29 	  30.6	  301	
2017	12	13	04	18	29 	  30.0	  304	
2017	12	13	04	18	29 	  31.1	  308	
2017	12	13	04	17	29 	  23.5	  314	
2017	12	13	04	17	29 	  28.2	  310	
2017	12	13	04	16	29 	  31.5	  311	
2017	12	13	04	16	29 	  24.2	  303	
2017	12	13	04	15	29 	  23.5	  296	
2017	12	13	04	15	29 	  23.3	  296	
2017	12	13	04	14	28 	  29.5	  303	
2017	12	13	04	14	28 	  24.4	  316	
2017	12	13	04	13	28 	  25.5	  317	
2017	12	13	04	13	28 	  22.6	  298	
2017	12	13	04	12	28 	  21.3	  302	
2017	12	13	04	11	28 	  28.4	  296	
2017	12	13	04	10	28 	  27.3	  298	
2017	12	13	04	09	28 	  23.3	  317	
2017	12	13	04	08	28 	  26.6	  301	
2017	12	13	04	07	28 	  30.9	  317	
2017	12	13	04	06	28 	  24.4	  309	
2017	12	13	04	05	29 	  23.7	  325	
2017	12	13	04	05	29 	  27.5	  312	
2017	12	13	04	04	29 	  22.4	  309	
2017	12	13	04	04	29 	  24.6	  301	
2017	12	13	04	03	29 	  31.3	  311	
2017	12	13	04	02	29 	  19.9	  317	
2017	12	13	04	01	28 	  21.0	  304	
2017	12	13	04	00	28 	  28.9	  313	
2017	12	13	03	59	27 	  22.8	  304	
2017	12	13	03	58	27 	  24.2	  320	
2017	12	13	03	57	27 	  20.4	  315	
2017	12	13	03	56	27 	  25.9	  316	
2017	12	13	03	55	26 	  26.6	  318	
2017	12	13	03	54	26 	  25.5	  290	
2017	12	13	03	53	26 	  24.2	  327	
2017	12	13	03	52	25 	  29.3	  319	
2017	12	13	03	51	25 	  24.8	  309	
2017	12	13	03	50	25 	  30.0	  313	
2017	12	13	03	48	24 	  25.1	  308	
2017	12	13	03	47	24 	  23.0	  315	
2017	12	13	03	46	24 	  29.3	  319	
2017	12	13	03	45	23 	  17.0	  305	
2017	12	13	03	44	23 	  25.9	  313	
2017	12	13	03	43	23 	  18.6	  325	
2017	12	13	03	42	23 	  21.9	  308	
2017	12	13	03	41	22 	  20.8	  320	
2017	12	13	03	40	22 	  23.0	  311	
2017	12	13	03	39	23 	  25.9	  313	
2017	12	13	03	38	23 	  22.1	  316	
2017	12	13	03	37	24 	  29.8	  314	
2017	12	13	03	36	25 	  26.6	  311	
2017	12	13	03	35	26 	  23.0	  316	
2017	12	13	03	34	26 	  20.6	  304	
2017	12	13	03	33	27 	  29.5	  305	
2017	12	13	03	32	28 	  28.6	  303	
2017	12	13	03	31	29 	  26.6	  298	
2017	12	13	03	30	29 	  24.4	  317	
2017	12	13	03	30	29 	  29.1	  306	
2017	12	13	03	29	30 	  19.5	  317	
2017	12	13	03	29	30 	  21.5	  314	
2017	12	13	03	28	30 	  28.4	  317	
2017	12	13	03	27	30 	  23.3	  305	
2017	12	13	03	27	30 	  22.8	  303	
2017	12	13	03	26	30 	  24.2	  308	
2017	12	13	03	25	30 	  26.2	  314	
2017	12	13	03	25	30 	  27.3	  299	
2017	12	13	03	24	30 	  31.3	  316	
2017	12	13	03	24	30 	  24.4	  310	
2017	12	13	03	23	30 	  23.9	  305	
2017	12	13	03	23	30 	  22.1	  315	
2017	12	13	03	22	30 	  22.8	  316	
2017	12	13	03	22	30 	  21.9	  309	
2017	12	13	03	21	30 	  24.2	  302	
2017	12	13	03	21	30 	  19.9	  293	
2017	12	13	03	20	30 	  24.6	  312	
2017	12	13	03	20	30 	  27.1	  317	
2017	12	13	03	19	30 	  28.2	  302	
2017	12	13	03	19	30 	  21.5	  316	
2017	12	13	03	18	30 	  26.8	  305	
2017	12	13	03	18	30 	  23.9	  306	
2017	12	13	03	17	30 	  24.2	  298	
2017	12	13	03	17	30 	  32.2	  313	
2017	12	13	03	16	30 	  29.5	  315	
2017	12	13	03	16	30 	  29.8	  311	
2017	12	13	03	15	30 	  28.9	  302	
2017	12	13	03	15	30 	  34.2	  292	
2017	12	13	03	14	30 	  28.6	  291	
2017	12	13	03	14	30 	  23.5	  289	
2017	12	13	03	13	31 	  28.0	  311	
2017	12	13	03	12	31 	  31.3	  310	
2017	12	13	03	12	31 	  31.3	  316	
2017	12	13	03	11	31 	  27.7	  307	
2017	12	13	03	11	31 	  23.5	  304	
2017	12	13	03	10	31 	  27.1	  309	
2017	12	13	03	10	31 	  24.6	  307	
2017	12	13	03	09	31 	  30.6	  295	
2017	12	13	03	09	31 	  22.6	  299	
2017	12	13	03	08	31 	  29.8	  321	
2017	12	13	03	08	31 	  28.9	  303	
2017	12	13	03	07	31 	  29.5	  303	
2017	12	13	03	07	31 	  32.0	  308	
2017	12	13	03	06	31 	  25.1	  305	
2017	12	13	03	06	31 	  28.6	  311	
2017	12	13	03	05	31 	  29.8	  314	
2017	12	13	03	05	31 	  31.5	  318	
2017	12	13	03	04	31 	  29.8	  308	
2017	12	13	03	04	31 	  24.8	  298	
2017	12	13	03	03	31 	  31.5	  316	
2017	12	13	03	03	31 	  24.2	  304	
2017	12	13	03	02	31 	  22.4	  310	
2017	12	13	03	01	32 	  29.3	  312	
2017	12	13	03	01	32 	  25.5	  306	
2017	12	13	03	00	32 	  23.3	  314	
2017	12	13	03	00	32 	  32.7	  297	
2017	12	13	02	59	32 	  21.3	  304	
2017	12	13	02	59	32 	  19.9	  304	
2017	12	13	02	58	32 	  24.6	  298	
2017	12	13	02	58	32 	  32.9	  303	
2017	12	13	02	57	32 	  29.8	  304	
2017	12	13	02	57	32 	  28.9	  296	
2017	12	13	02	56	32 	  27.7	  305	
2017	12	13	02	56	32 	  29.8	  300	
2017	12	13	02	55	32 	  26.8	  297	
2017	12	13	02	55	32 	  26.6	  305	
2017	12	13	02	54	32 	  31.5	  323	
2017	12	13	02	54	32 	  23.3	  314	
2017	12	13	02	53	32 	  25.9	  321	
2017	12	13	02	53	32 	  24.4	  298	
2017	12	13	02	52	32 	  26.2	  296	
2017	12	13	02	52	32 	  24.8	  309	
2017	12	13	02	51	32 	  28.6	  303	
2017	12	13	02	51	32 	  27.3	  310	
2017	12	13	02	50	32 	  31.1	  319	
2017	12	13	02	50	32 	  30.0	  307	
2017	12	13	02	49	32 	  28.4	  322	
2017	12	13	02	49	32 	  26.8	  321	
2017	12	13	02	48	32 	  32.4	  308	
2017	12	13	02	48	32 	  24.8	  304	
2017	12	13	02	47	32 	  30.4	  304	
2017	12	13	02	47	32 	  32.7	  295	
2017	12	13	02	46	32 	  30.4	  304	
2017	12	13	02	46	32 	  30.6	  301	
2017	12	13	02	45	32 	  27.5	  304	
2017	12	13	02	45	32 	  21.7	  314	
2017	12	13	02	44	32 	  31.5	  316	
2017	12	13	02	44	32 	  29.1	  317	
2017	12	13	02	43	33 	  35.3	  296	
2017	12	13	02	42	33 	  36.2	  304	
2017	12	13	02	41	33 	  28.4	  312	
2017	12	13	02	40	33 	  27.1	  320	
2017	12	13	02	39	33 	  28.4	  315	
2017	12	13	02	38	33 	  23.5	  312	
2017	12	13	02	37	33 	  28.9	  322	
2017	12	13	02	36	33 	  25.9	  321	
2017	12	13	02	35	33 	  26.2	  301	
2017	12	13	02	34	33 	  27.5	  311	
2017	12	13	02	33	33 	  23.5	  308	
2017	12	13	02	32	33 	  25.9	  318	
2017	12	13	02	31	33 	  29.1	  307	
2017	12	13	02	30	33 	  27.1	  307	
2017	12	13	02	29	32 	  35.3	  306	
2017	12	13	02	29	32 	  25.3	  311	
2017	12	13	02	28	32 	  29.1	  322	
2017	12	13	02	28	32 	  30.6	  312	
2017	12	13	02	27	32 	  25.1	  308	
2017	12	13	02	27	32 	  30.0	  313	
2017	12	13	02	26	32 	  25.3	  317	
2017	12	13	02	26	32 	  24.6	  313	
2017	12	13	02	25	32 	  24.6	  311	
2017	12	13	02	25	32 	  30.0	  309	
2017	12	13	02	24	32 	  26.6	  308	
2017	12	13	02	24	32 	  33.1	  313	
2017	12	13	02	23	31 	  28.2	  305	
2017	12	13	02	23	31 	  25.1	  318	
2017	12	13	02	22	31 	  19.0	  317	
2017	12	13	02	22	31 	  30.9	  311	
2017	12	13	02	21	31 	  33.8	  313	
2017	12	13	02	21	31 	  26.6	  314	
2017	12	13	02	20	30 	  27.5	  308	
2017	12	13	02	20	30 	  29.5	  326	
2017	12	13	02	19	30 	  26.8	  324	
2017	12	13	02	19	30 	  27.5	  318	
2017	12	13	02	18	29 	  29.8	  321	
2017	12	13	02	18	29 	  31.1	  313	
2017	12	13	02	17	29 	  22.6	  299	
2017	12	13	02	17	29 	  27.1	  316	
2017	12	13	02	16	29 	  29.1	  317	
2017	12	13	02	15	28 	  25.1	  301	
2017	12	13	02	14	28 	  34.0	  315	
2017	12	13	02	13	28 	  26.2	  314	
2017	12	13	02	12	27 	  27.7	  306	
2017	12	13	02	11	27 	  28.6	  309	
2017	12	13	02	10	27 	  27.7	  320	
2017	12	13	02	09	27 	  25.7	  302	
2017	12	13	02	08	27 	  22.4	  311	
2017	12	13	02	07	27 	  25.5	  303	
2017	12	13	02	06	26 	  22.8	  299	
2017	12	13	02	05	26 	  25.3	  310	
2017	12	13	02	04	26 	  30.9	  321	
2017	12	13	02	02	26 	  29.5	  323	
2017	12	13	02	01	26 	  21.7	  319	
2017	12	13	02	00	26 	  25.5	  321	
2017	12	13	01	59	26 	  24.2	  313	
2017	12	13	01	58	26 	  28.6	  324	
2017	12	13	01	57	26 	  27.7	  311	
2017	12	13	01	56	26 	  25.7	  323	
2017	12	13	01	55	26 	  21.9	  312	
2017	12	13	01	54	25 	  26.2	  317	
2017	12	13	01	53	25 	  24.4	  315	
2017	12	13	01	52	25 	  27.1	  304	
2017	12	13	01	50	25 	  27.3	  311	
2017	12	13	01	49	25 	  27.5	  316	
2017	12	13	01	48	25 	  22.8	  308	
2017	12	13	01	47	25 	  23.7	  313	
2017	12	13	01	46	25 	  24.8	  309	
2017	12	13	01	45	25 	  26.4	  321	
2017	12	13	01	44	25 	  28.6	  309	
2017	12	13	01	43	25 	  19.5	  303	
2017	12	13	01	42	24 	  22.6	  318	
2017	12	13	01	41	24 	  27.7	  309	
2017	12	13	01	40	24 	  29.5	  314	
2017	12	13	01	39	24 	  30.4	  317	
2017	12	13	01	38	24 	  24.8	  332	
2017	12	13	01	37	24 	  23.0	  315	
2017	12	13	01	36	24 	  23.0	  311	
2017	12	13	01	35	24 	  30.0	  315	
2017	12	13	01	34	24 	  32.4	  327	
2017	12	13	01	33	25 	  30.6	  318	
2017	12	13	01	32	25 	  28.2	  313	
2017	12	13	01	31	24 	  28.9	  327	
2017	12	13	01	30	25 	  28.6	  311	
2017	12	13	01	29	25 	  29.3	  319	
2017	12	13	01	28	25 	  28.4	  309	
2017	12	13	01	27	24 	  28.6	  312	
2017	12	13	01	26	24 	  32.0	  304	
2017	12	13	01	25	24 	  30.0	  309	
2017	12	13	01	24	25 	  32.2	  308	
2017	12	13	01	23	24 	  33.3	  312	
2017	12	13	01	22	24 	  32.4	  311	
2017	12	13	01	21	24 	  35.3	  316	
2017	12	13	01	20	24 	  32.7	  298	
2017	12	13	01	19	24 	  37.1	  314	
2017	12	13	01	18	24 	  30.4	  301	
2017	12	13	01	17	24 	  32.0	  302	
2017	12	13	01	16	24 	  37.4	  301	
2017	12	13	01	15	24 	  37.6	  292	
2017	12	13	01	14	24 	  34.2	  300	
2017	12	13	01	13	24 	  34.4	  308	
2017	12	13	01	12	24 	  34.7	  298	
2017	12	13	01	11	24 	  37.1	  297	
2017	12	13	01	10	24 	  30.2	  300	
2017	12	13	01	08	23 	  38.5	  314	
2017	12	13	01	07	23 	  35.6	  309	
2017	12	13	01	06	23 	  30.4	  296	
2017	12	13	01	05	23 	  38.0	  302	
2017	12	13	01	04	22 	  31.5	  303	
2017	12	13	01	03	22 	  27.1	  310	
2017	12	13	01	02	22 	  35.1	  297	
2017	12	13	01	02	22 	  30.4	  297	
2017	12	13	01	01	21 	  26.2	  290	
2017	12	13	01	01	21 	  38.3	  293	
2017	12	13	01	00	21 	  25.1	  297	
2017	12	13	01	00	21 	  31.5	  292	
2017	12	13	00	59	21 	  29.3	  303	
2017	12	13	00	59	21 	  28.4	  301	
2017	12	13	00	58	20 	  36.5	  302	
2017	12	13	00	58	20 	  33.8	  298	
2017	12	13	00	57	20 	  23.3	  292	
2017	12	13	00	57	20 	  34.4	  289	
2017	12	13	00	56	20 	  29.1	  285	
2017	12	13	00	56	20 	  19.7	  290	
2017	12	13	00	55	19 	  28.9	  290	
2017	12	13	00	55	19 	  28.4	  298	
2017	12	13	00	54	19 	  36.2	  309	
2017	12	13	00	54	19 	  30.0	  299	
2017	12	13	00	52	19 	  19.5	  289	
2017	12	13	00	52	19 	  31.8	  295	
2017	12	13	00	51	19 	  27.7	  287	
2017	12	13	00	51	19 	  33.8	  292	
2017	12	13	00	50	18 	  30.0	  293	
2017	12	13	00	50	18 	  25.9	  294	
2017	12	13	00	49	18 	  23.0	  284	
2017	12	13	00	49	18 	  30.9	  289	
2017	12	13	00	48	18 	  19.9	  287	
2017	12	13	00	47	17 	  21.3	  288	
2017	12	13	00	46	17 	  26.8	  287	
2017	12	13	00	45	17 	  21.0	  298	
2017	12	13	00	44	17 	   7.2	  268	
2017	12	13	00	43	17 	   5.6	  187	
2017	12	13	00	42	16 	   5.1	  200	
2017	12	13	00	41	16 	   7.2	  211	
2017	12	13	00	40	16 	   3.6	  219	
2017	12	13	00	39	15 	   3.8	  190	
2017	12	13	00	38	15 	   4.3	  205	
2017	12	13	00	36	15 	  11.6	  156	
2017	12	13	00	35	15 	  12.3	  188	
2017	12	13	00	34	15 	   4.7	  172	
2017	12	13	00	33	14 	  13.9	  189	
2017	12	13	00	32	14 	   8.5	  189	
2017	12	13	00	31	14 	   5.1	  171	
2017	12	13	00	30	13 	   7.4	  196	
2017	12	13	00	29	13 	   6.3	  192	
2017	12	13	00	27	13 	   7.6	  167	
2017	12	13	00	26	12 	   5.4	  163	
2017	12	13	00	25	12 	  11.0	  181	
2017	12	13	00	24	11 	   5.1	  207	
2017	12	13	00	23	11 	  13.6	  204	
2017	12	13	00	22	11 	   7.2	  187	
2017	12	13	00	21	11 	   7.2	  182	
2017	12	13	00	20	10 	   2.7	  150	
2017	12	13	00	19	10 	  13.2	  195	
2017	12	13	00	18	10 	   5.8	  155	
2017	12	13	00	17	09 	   6.0	  184	
2017	12	13	00	16	09 	  11.4	  188	
2017	12	13	00	15	09 	   9.4	  198	
2017	12	13	00	15	09 	   8.9	  172	
2017	12	13	00	14	09 	  13.0	  205	
2017	12	13	00	14	09 	   5.6	  174	
2017	12	13	00	13	08 	   8.7	  176	
2017	12	13	00	13	08 	  13.6	  193	
2017	12	13	00	12	08 	   6.3	  140	
2017	12	13	00	12	08 	   9.6	  171	
2017	12	13	00	11	08 	   8.3	  197	
2017	12	13	00	11	08 	   5.6	  189	
2017	12	13	00	10	07 	   7.4	  199	
2017	12	13	00	09	07 	   8.5	  186	
2017	12	13	00	09	07 	   8.5	  186	
2017	12	13	00	08	07 	   5.6	  210	
2017	12	13	00	07	07 	  13.6	  216	
2017	12	13	00	07	07 	   3.4	  157	
2017	12	13	00	06	07 	   3.4	  191	
2017	12	13	00	06	07 	  11.4	  190	
2017	12	13	00	05	07 	  13.9	  207	
2017	12	13	00	04	07 	   6.0	  207	
2017	12	13	00	03	06 	   2.7	  246	
2017	12	13	00	02	06 	  12.8	  186	
2017	12	13	00	01	05 	   8.9	  134	
2017	12	13	00	00	05 	   2.7	  150	
2017	12	12	23	59	05 	   9.4	  185	
2017	12	12	23	58	05 	  14.3	  228	
2017	12	12	23	57	05 	   7.6	  207	
2017	12	12	23	56	04 	   8.3	  235	
2017	12	12	23	55	04 	   7.2	  223	
2017	12	12	23	54	04 	   5.1	  200	
2017	12	12	23	53	03 	   3.6	  219	
2017	12	12	23	52	03 	   7.8	  206	
2017	12	12	23	50	02 	   7.6	  207	
2017	12	12	23	49	02 	   5.4	  185	
2017	12	12	23	49	02 	   4.7	  213	
2017	12	12	23	48	02 	   0.9	  150	
2017	12	12	23	48	02 	   8.7	  205	
2017	12	12	23	47	01 	  10.7	  230	
2017	12	12	23	47	01 	   5.8	  221	
2017	12	12	23	46	01 	   4.3	  168	
2017	12	12	23	46	01 	   8.7	  173	
2017	12	12	23	45	01 	  12.8	  189	
2017	12	12	23	45	01 	  15.4	  176	
2017	12	12	23	44	00 	   9.6	  171	
2017	12	12	23	44	00 	  13.0	  162	
2017	12	12	23	43	00 	  11.4	  190	
2017	12	12	23	43	00 	  12.3	  204	
2017	12	12	23	42	00 	   4.0	  174	
2017	12	12	23	42	00 	  11.9	  207	
2017	12	12	23	40	59 	   3.6	  194	
2017	12	12	23	40	59 	   4.9	  173	
2017	12	12	23	39	59 	   5.1	  175	
2017	12	12	23	39	59 	   6.5	  182	
2017	12	12	23	38	59 	   8.1	  210	
2017	12	12	23	38	59 	   5.1	  220	
2017	12	12	23	37	58 	   1.6	  225	
2017	12	12	23	36	58 	  10.5	  172	
2017	12	12	23	36	58 	   6.3	  199	
2017	12	12	23	35	58 	   4.3	  235	
2017	12	12	23	34	57 	   6.5	  200	
2017	12	12	23	33	57 	   6.0	  188	
2017	12	12	23	32	57 	   4.0	  203	
2017	12	12	23	31	56 	   1.3	  180	
2017	12	12	23	30	56 	   3.4	  188	
2017	12	12	23	29	56 	   6.7	  211	
2017	12	12	23	28	55 	   3.6	  244	
2017	12	12	23	27	55 	   3.6	  212	
2017	12	12	23	26	55 	  11.0	  215	
2017	12	12	23	25	54 	   4.5	  186	
2017	12	12	23	24	54 	  12.1	  230	
2017	12	12	23	23	54 	   7.4	  222	
2017	12	12	23	22	53 	   9.2	  205	
2017	12	12	23	21	53 	  11.6	  192	
2017	12	12	23	20	53 	  11.6	  211	
2017	12	12	23	19	52 	  10.7	  231	
2017	12	12	23	19	52 	   4.5	  180	
2017	12	12	23	18	52 	   3.8	  210	
2017	12	12	23	18	52 	   7.6	  213	
2017	12	12	23	17	52 	   7.2	  182	
2017	12	12	23	17	52 	   5.8	  206	
2017	12	12	23	16	51 	   8.1	  236	
2017	12	12	23	16	51 	   5.1	  178	
2017	12	12	23	15	51 	   3.8	  144	
2017	12	12	23	15	51 	   8.1	  189	
2017	12	12	23	14	51 	  11.0	  250	
2017	12	12	23	14	51 	   8.1	  210	
2017	12	12	23	13	51 	  17.0	  240	
2017	12	12	23	13	51 	   6.5	  194	
2017	12	12	23	12	50 	   4.3	  159	
2017	12	12	23	12	50 	   5.1	  180	
2017	12	12	23	11	50 	   6.0	  247	
2017	12	12	23	11	50 	   7.6	  207	
2017	12	12	23	10	50 	   8.7	  190	
2017	12	12	23	10	50 	   4.3	  174	
2017	12	12	23	09	50 	  14.5	  190	
2017	12	12	23	09	50 	   1.6	  254	
2017	12	12	23	08	50 	   6.3	  214	
2017	12	12	23	08	50 	   5.8	  206	
2017	12	12	23	07	49 	   8.3	  239	
2017	12	12	23	07	49 	   1.8	  231	
2017	12	12	23	06	49 	   4.3	  242	
2017	12	12	23	06	49 	   5.8	  203	
2017	12	12	23	05	49 	  11.0	  187	
2017	12	12	23	05	49 	  14.5	  237	
2017	12	12	23	04	49 	  11.2	  174	
2017	12	12	23	04	49 	  13.2	  182	
2017	12	12	23	03	49 	  10.5	  217	
2017	12	12	23	03	49 	   5.8	  221	
2017	12	12	23	02	49 	  18.3	  243	
2017	12	12	23	01	48 	   8.7	  209	
2017	12	12	23	00	48 	  12.8	  232	
2017	12	12	22	59	48 	   7.4	  212	
2017	12	12	22	58	48 	   8.7	  235	
2017	12	12	22	57	48 	  21.0	  226	
2017	12	12	22	56	48 	   9.4	  222	
2017	12	12	22	56	48 	  11.6	  199	
2017	12	12	22	55	48 	   3.6	  212	
2017	12	12	22	54	48 	   8.7	  187	
2017	12	12	22	53	48 	  13.0	  197	
2017	12	12	22	52	48 	   7.2	  211	
2017	12	12	22	51	48 	   8.1	  231	
2017	12	12	22	50	48 	  15.9	  227	
2017	12	12	22	49	48 	   8.1	  189	
2017	12	12	22	48	48 	  15.4	  190	
2017	12	12	22	47	48 	   8.7	  254	
2017	12	12	22	46	48 	   7.2	  211	
2017	12	12	22	45	48 	  13.4	  227	
2017	12	12	22	44	48 	   6.7	  218	
2017	12	12	22	43	48 	   8.7	  199	
2017	12	12	22	42	48 	   4.0	  270	
2017	12	12	22	41	48 	  13.2	  174	
2017	12	12	22	40	48 	  10.1	  178	


Time [Local Time: 24 hour], Temperatures [F], RH [%], Pressure [hPa], Visibility [feet], and Precipitation [Inches]

Max & min values for TT_2m and TT_10m, Tch_2m, RH, PP, and Visibility are over last hour

Max & min values for ground temperature Tg are over the last 24 hours

Meteorological wind direction dd [degrees], Wind Speed ff [mph]; winds are instantaneous values